EVA012 RCTP-KLAX
Flight info
| Callsign | EVA012 |
|---|---|
| Flight time | 11h 2m |
| Altitude | 31000 |
| Route | MOLKA1A ROBIN R583 BORDO Z29 GAKIA Y293 GUSLU/N0494F330 Y293 YULIA Y57 POROT Y809 AVBET OTR9 EMRON DCT 41N160E 4207N16500E 43N170E 45N180E/N0479F350 45N170W 44N160W 42N150W 40N140W 38N130W/N0476F370 DCT ALLBE DCT SUPER DCT PIRAT DCT BURGL IRNMN2 |
| Aircraft | B77W/H-SDE1E2E3FGHIJ2J3J4J5M1RWXY/LB1D1 |
Departure
| Time | 2026-04-24 16:36 |
|---|---|
| Airport | Taiwan Taoyuan International Airport (RCTP) |
Arrival
| Time | 2026-04-25 03:39 |
|---|---|
| Airport | Los Angeles International Airport (KLAX) |
| Time | Latitude | Longitude | Altitude | Speed | Heading |
|---|---|---|---|---|---|
| 2026-04-24 15:56 | 25.07599 | 121.23440 | 105 ft | 0 kts | 319° |
| 2026-04-24 16:27 | 25.07590 | 121.23448 | 106 ft | 2 kts | 319° |
| 2026-04-24 16:27 | 25.07578 | 121.23460 | 104 ft | 2 kts | 319° |
| 2026-04-24 16:28 | 25.07565 | 121.23472 | 106 ft | 2 kts | 319° |
| 2026-04-24 16:28 | 25.07553 | 121.23483 | 104 ft | 2 kts | 319° |
| 2026-04-24 16:28 | 25.07530 | 121.23508 | 103 ft | 2 kts | 300° |
| 2026-04-24 16:29 | 25.07524 | 121.23525 | 106 ft | 2 kts | 272° |
| 2026-04-24 16:29 | 25.07527 | 121.23542 | 104 ft | 2 kts | 238° |
| 2026-04-24 16:29 | 25.07528 | 121.23545 | 104 ft | 0 kts | 231° |
| 2026-04-24 16:31 | 25.07523 | 121.23538 | 103 ft | 5 kts | 230° |
| 2026-04-24 16:32 | 25.07472 | 121.23470 | 108 ft | 19 kts | 230° |
| 2026-04-24 16:32 | 25.07377 | 121.23347 | 108 ft | 21 kts | 229° |
| 2026-04-24 16:32 | 25.07280 | 121.23222 | 107 ft | 21 kts | 229° |
| 2026-04-24 16:32 | 25.07153 | 121.23231 | 106 ft | 21 kts | 141° |
| 2026-04-24 16:33 | 25.07027 | 121.23228 | 106 ft | 21 kts | 222° |
| 2026-04-24 16:33 | 25.06932 | 121.23108 | 107 ft | 22 kts | 229° |
| 2026-04-24 16:33 | 25.06816 | 121.22961 | 106 ft | 29 kts | 229° |
| 2026-04-24 16:33 | 25.06681 | 121.22791 | 106 ft | 29 kts | 229° |
| 2026-04-24 16:34 | 25.06546 | 121.22621 | 104 ft | 29 kts | 229° |
| 2026-04-24 16:34 | 25.06412 | 121.22451 | 107 ft | 29 kts | 229° |
| 2026-04-24 16:34 | 25.06283 | 121.22288 | 107 ft | 23 kts | 229° |
| 2026-04-24 16:34 | 25.06160 | 121.22294 | 104 ft | 20 kts | 139° |
| 2026-04-24 16:35 | 25.06138 | 121.22423 | 102 ft | 20 kts | 54° |
| 2026-04-24 16:35 | 25.06258 | 121.22575 | 103 ft | 46 kts | 48° |
| 2026-04-24 16:35 | 25.06638 | 121.23059 | 101 ft | 119 kts | 49° |
| 2026-04-24 16:35 | 25.07318 | 121.23924 | 98 ft | 177 kts | 49° |
| 2026-04-24 16:36 | 25.08192 | 121.25022 | 455 ft | 187 kts | 51° |
| 2026-04-24 16:36 | 25.09032 | 121.26113 | 1065 ft | 190 kts | 51° |
| 2026-04-24 16:36 | 25.09894 | 121.27253 | 1684 ft | 192 kts | 51° |
| 2026-04-24 16:36 | 25.10774 | 121.28418 | 1949 ft | 210 kts | 51° |
| 2026-04-24 16:37 | 25.11763 | 121.29697 | 2240 ft | 226 kts | 48° |
| 2026-04-24 16:37 | 25.12879 | 121.30994 | 2667 ft | 238 kts | 47° |
| 2026-04-24 16:37 | 25.14059 | 121.32338 | 3116 ft | 249 kts | 47° |
| 2026-04-24 16:37 | 25.15274 | 121.33723 | 3634 ft | 256 kts | 47° |
| 2026-04-24 16:38 | 25.16540 | 121.35169 | 4128 ft | 267 kts | 47° |
| 2026-04-24 16:38 | 25.17865 | 121.36686 | 4565 ft | 278 kts | 46° |
| 2026-04-24 16:38 | 25.19229 | 121.38252 | 5112 ft | 285 kts | 46° |
| 2026-04-24 16:38 | 25.20614 | 121.39844 | 5674 ft | 290 kts | 46° |
| 2026-04-24 16:39 | 25.22008 | 121.41447 | 6215 ft | 296 kts | 45° |
| 2026-04-24 16:39 | 25.23455 | 121.43114 | 6717 ft | 303 kts | 45° |
| 2026-04-24 16:39 | 25.24926 | 121.44809 | 7269 ft | 307 kts | 45° |
| 2026-04-24 16:39 | 25.26413 | 121.46524 | 7810 ft | 311 kts | 45° |
| 2026-04-24 16:40 | 25.27911 | 121.48254 | 8489 ft | 308 kts | 46° |
| 2026-04-24 16:40 | 25.29085 | 121.50192 | 8871 ft | 313 kts | 74° |
| 2026-04-24 16:40 | 25.29301 | 121.52561 | 9287 ft | 311 kts | 103° |
| 2026-04-24 16:40 | 25.28931 | 121.54931 | 9562 ft | 319 kts | 94° |
| 2026-04-24 16:41 | 25.29262 | 121.57386 | 9965 ft | 327 kts | 75° |
| 2026-04-24 16:41 | 25.29888 | 121.59830 | 10353 ft | 334 kts | 76° |
| 2026-04-24 16:41 | 25.30490 | 121.62381 | 10505 ft | 352 kts | 77° |
| 2026-04-24 16:41 | 25.31083 | 121.65089 | 10664 ft | 372 kts | 78° |
| 2026-04-24 16:42 | 25.31670 | 121.67912 | 10801 ft | 391 kts | 78° |
| 2026-04-24 16:42 | 25.32275 | 121.70919 | 11005 ft | 408 kts | 79° |
| 2026-04-24 16:42 | 25.32890 | 121.74039 | 11432 ft | 418 kts | 79° |
| 2026-04-24 16:42 | 25.33508 | 121.77208 | 12003 ft | 424 kts | 79° |
| 2026-04-24 16:43 | 25.34131 | 121.80416 | 12675 ft | 428 kts | 79° |
| 2026-04-24 16:43 | 25.34759 | 121.83659 | 13370 ft | 432 kts | 79° |
| 2026-04-24 16:43 | 25.35381 | 121.86875 | 13972 ft | 437 kts | 79° |
| 2026-04-24 16:43 | 25.36021 | 121.90192 | 14498 ft | 442 kts | 79° |
| 2026-04-24 16:44 | 25.36667 | 121.93543 | 15065 ft | 446 kts | 80° |
| 2026-04-24 16:44 | 25.37319 | 121.96922 | 15643 ft | 450 kts | 80° |
| 2026-04-24 16:44 | 25.37975 | 122.00330 | 16198 ft | 455 kts | 80° |
| 2026-04-24 16:44 | 25.38637 | 122.03772 | 16744 ft | 460 kts | 80° |
| 2026-04-24 16:45 | 25.39306 | 122.07253 | 17326 ft | 463 kts | 79° |
| 2026-04-24 16:45 | 25.39965 | 122.10688 | 18042 ft | 462 kts | 80° |
| 2026-04-24 16:45 | 25.40636 | 122.14184 | 18558 ft | 466 kts | 80° |
| 2026-04-24 16:45 | 25.41313 | 122.17726 | 18937 ft | 472 kts | 80° |
| 2026-04-24 16:46 | 25.42006 | 122.21297 | 19371 ft | 476 kts | 78° |
| 2026-04-24 16:46 | 25.42955 | 122.24830 | 19816 ft | 481 kts | 72° |
| 2026-04-24 16:46 | 25.44133 | 122.28313 | 20281 ft | 485 kts | 69° |
| 2026-04-24 16:46 | 25.45377 | 122.31794 | 20751 ft | 488 kts | 69° |
| 2026-04-24 16:47 | 25.46609 | 122.35311 | 21193 ft | 491 kts | 70° |
| 2026-04-24 16:47 | 25.47792 | 122.38822 | 21607 ft | 495 kts | 71° |
| 2026-04-24 16:47 | 25.48968 | 122.42424 | 22014 ft | 499 kts | 71° |
| 2026-04-24 16:47 | 25.50142 | 122.46057 | 22434 ft | 503 kts | 71° |
| 2026-04-24 16:48 | 25.51330 | 122.49711 | 22864 ft | 506 kts | 70° |
| 2026-04-24 16:48 | 25.52566 | 122.53382 | 23259 ft | 510 kts | 70° |
| 2026-04-24 16:48 | 25.53834 | 122.57072 | 23688 ft | 513 kts | 70° |
| 2026-04-24 16:48 | 25.55095 | 122.60727 | 24015 ft | 516 kts | 70° |
| 2026-04-24 16:49 | 25.56381 | 122.64466 | 24327 ft | 520 kts | 70° |
| 2026-04-24 16:49 | 25.57670 | 122.68236 | 24609 ft | 524 kts | 70° |
| 2026-04-24 16:49 | 25.58962 | 122.72031 | 24923 ft | 527 kts | 70° |
| 2026-04-24 16:49 | 25.60257 | 122.75846 | 25255 ft | 529 kts | 70° |
| 2026-04-24 16:50 | 25.61117 | 122.78383 | 25483 ft | 531 kts | 70° |
| 2026-04-24 16:50 | 25.62845 | 122.83483 | 25901 ft | 535 kts | 70° |
| 2026-04-24 16:50 | 25.64164 | 122.87378 | 26214 ft | 538 kts | 70° |
| 2026-04-24 16:50 | 25.65479 | 122.91282 | 26499 ft | 541 kts | 70° |
| 2026-04-24 16:51 | 25.66797 | 122.95212 | 26757 ft | 545 kts | 70° |
| 2026-04-24 16:51 | 25.68101 | 122.99105 | 27038 ft | 548 kts | 70° |
| 2026-04-24 16:51 | 25.69436 | 123.03084 | 27428 ft | 549 kts | 71° |
| 2026-04-24 16:51 | 25.70770 | 123.07048 | 27808 ft | 550 kts | 71° |
| 2026-04-24 16:52 | 25.72113 | 123.11036 | 28113 ft | 552 kts | 71° |
| 2026-04-24 16:52 | 25.73462 | 123.15047 | 28366 ft | 555 kts | 71° |
| 2026-04-24 16:52 | 25.74800 | 123.19033 | 28553 ft | 559 kts | 71° |
| 2026-04-24 16:52 | 25.76167 | 123.23109 | 28715 ft | 564 kts | 71° |
| 2026-04-24 16:53 | 25.77537 | 123.27201 | 28975 ft | 566 kts | 71° |
| 2026-04-24 16:53 | 25.78907 | 123.31295 | 29301 ft | 566 kts | 71° |
| 2026-04-24 16:53 | 25.80276 | 123.35392 | 29711 ft | 565 kts | 71° |
| 2026-04-24 16:53 | 25.81640 | 123.39476 | 30122 ft | 563 kts | 71° |
| 2026-04-24 16:54 | 25.83002 | 123.43563 | 30467 ft | 563 kts | 71° |
| 2026-04-24 16:54 | 25.84349 | 123.47607 | 30678 ft | 566 kts | 71° |
| 2026-04-24 16:54 | 25.85717 | 123.51721 | 30858 ft | 568 kts | 71° |
| 2026-04-24 16:54 | 25.87092 | 123.55860 | 31007 ft | 572 kts | 70° |
| 2026-04-24 16:55 | 25.89856 | 123.64181 | 31073 ft | 572 kts | 70° |
| 2026-04-24 16:55 | 25.92580 | 123.72383 | 31071 ft | 567 kts | 71° |
| 2026-04-24 16:56 | 25.95299 | 123.80590 | 31067 ft | 564 kts | 71° |
| 2026-04-24 16:56 | 25.98001 | 123.88771 | 31107 ft | 563 kts | 71° |
| 2026-04-24 16:57 | 26.00691 | 123.96900 | 31063 ft | 563 kts | 69° |
| 2026-04-24 16:57 | 26.04108 | 124.04742 | 31071 ft | 564 kts | 58° |
| 2026-04-24 16:58 | 26.08241 | 124.12183 | 31071 ft | 566 kts | 57° |
| 2026-04-24 16:58 | 26.12361 | 124.19610 | 31081 ft | 568 kts | 58° |
| 2026-04-24 16:59 | 26.16477 | 124.27156 | 31084 ft | 569 kts | 58° |
| 2026-04-24 17:00 | 26.22589 | 124.38472 | 31072 ft | 570 kts | 58° |
| 2026-04-24 17:00 | 26.28714 | 124.49829 | 31056 ft | 568 kts | 58° |
| 2026-04-24 17:01 | 26.34822 | 124.61170 | 31079 ft | 569 kts | 59° |
| 2026-04-24 17:02 | 26.40904 | 124.72493 | 31071 ft | 568 kts | 59° |
| 2026-04-24 17:02 | 26.44945 | 124.80033 | 31060 ft | 568 kts | 59° |
| 2026-04-24 17:03 | 26.51046 | 124.91439 | 31074 ft | 570 kts | 59° |
| 2026-04-24 17:04 | 26.55092 | 124.99019 | 31070 ft | 571 kts | 59° |
| 2026-04-24 17:04 | 26.61192 | 125.10474 | 31082 ft | 573 kts | 59° |
| 2026-04-24 17:05 | 26.65270 | 125.18147 | 31083 ft | 575 kts | 59° |
| 2026-04-24 17:06 | 26.71399 | 125.29706 | 31059 ft | 574 kts | 59° |
| 2026-04-24 17:06 | 26.77485 | 125.41214 | 31064 ft | 573 kts | 59° |
| 2026-04-24 17:07 | 26.81546 | 125.48908 | 31082 ft | 573 kts | 59° |
| 2026-04-24 17:08 | 26.89614 | 125.64235 | 31059 ft | 571 kts | 59° |
| 2026-04-24 17:08 | 26.93648 | 125.71919 | 31060 ft | 571 kts | 59° |
| 2026-04-24 17:09 | 27.01679 | 125.87259 | 31064 ft | 572 kts | 59° |
| 2026-04-24 17:10 | 27.09747 | 126.02655 | 31060 ft | 573 kts | 59° |
| 2026-04-24 17:12 | 27.25926 | 126.33654 | 31062 ft | 577 kts | 59° |
| 2026-04-24 18:54 | 35.86910 | 143.08510 | 31151 ft | 602 kts | 58° |
| 2026-04-24 18:55 | 35.92137 | 143.22571 | 31147 ft | 607 kts | 71° |
| 2026-04-24 18:56 | 35.94162 | 143.32686 | 31143 ft | 608 kts | 83° |
| 2026-04-24 18:56 | 35.95105 | 143.43059 | 31154 ft | 608 kts | 85° |
| 2026-04-24 18:57 | 35.95925 | 143.51693 | 31167 ft | 609 kts | 84° |
| 2026-04-24 18:57 | 35.96994 | 143.62028 | 31157 ft | 609 kts | 84° |
| 2026-04-24 18:58 | 35.98219 | 143.74134 | 31147 ft | 609 kts | 84° |
| 2026-04-24 18:58 | 35.99079 | 143.82781 | 31119 ft | 608 kts | 84° |
| 2026-04-24 18:59 | 36.00102 | 143.93150 | 31150 ft | 607 kts | 84° |
| 2026-04-24 18:59 | 36.01118 | 144.03514 | 31150 ft | 607 kts | 84° |
| 2026-04-24 19:00 | 36.02119 | 144.13809 | 31150 ft | 607 kts | 84° |
| 2026-04-24 19:00 | 36.03116 | 144.24190 | 31156 ft | 607 kts | 84° |
| 2026-04-24 19:01 | 36.04105 | 144.34570 | 31157 ft | 607 kts | 84° |
| 2026-04-24 19:01 | 36.05079 | 144.44895 | 31150 ft | 608 kts | 85° |
| 2026-04-24 19:02 | 36.06051 | 144.55287 | 31159 ft | 608 kts | 85° |
| 2026-04-24 19:02 | 36.07015 | 144.65698 | 31116 ft | 607 kts | 84° |
| 2026-04-24 19:03 | 36.07960 | 144.76001 | 31166 ft | 606 kts | 85° |
| 2026-04-24 19:03 | 36.08903 | 144.86391 | 31152 ft | 607 kts | 85° |
| 2026-04-24 19:04 | 36.09832 | 144.96709 | 31144 ft | 607 kts | 85° |
| 2026-04-24 19:04 | 36.10756 | 145.07092 | 31154 ft | 607 kts | 85° |
| 2026-04-24 19:05 | 36.11670 | 145.17453 | 31149 ft | 607 kts | 85° |
| 2026-04-24 19:05 | 36.12578 | 145.27852 | 31156 ft | 607 kts | 85° |
| 2026-04-24 19:06 | 36.13514 | 145.38260 | 31140 ft | 607 kts | 82° |
| 2026-04-24 19:06 | 36.15590 | 145.48292 | 31140 ft | 605 kts | 68° |
| 2026-04-24 19:07 | 36.19061 | 145.57712 | 31141 ft | 598 kts | 55° |
| 2026-04-24 19:07 | 36.23268 | 145.66589 | 31136 ft | 597 kts | 55° |
| 2026-04-24 19:08 | 36.27451 | 145.75437 | 31130 ft | 598 kts | 55° |
| 2026-04-24 19:08 | 36.31598 | 145.84400 | 31142 ft | 599 kts | 56° |
| 2026-04-24 19:09 | 36.35717 | 145.93414 | 31133 ft | 599 kts | 56° |
| 2026-04-24 19:09 | 36.39799 | 146.02374 | 31134 ft | 599 kts | 56° |
| 2026-04-24 19:10 | 36.43917 | 146.11418 | 31134 ft | 600 kts | 56° |
| 2026-04-24 19:10 | 36.48024 | 146.20453 | 31131 ft | 600 kts | 56° |
| 2026-04-24 19:11 | 36.52095 | 146.29434 | 31133 ft | 600 kts | 56° |
| 2026-04-24 19:11 | 36.56190 | 146.38492 | 31132 ft | 600 kts | 57° |
| 2026-04-24 19:12 | 36.60277 | 146.47560 | 31133 ft | 601 kts | 57° |
| 2026-04-24 19:12 | 36.64365 | 146.56656 | 31129 ft | 601 kts | 57° |
| 2026-04-24 19:13 | 36.67759 | 146.64226 | 31125 ft | 601 kts | 57° |
| 2026-04-24 19:13 | 36.72476 | 146.74774 | 31125 ft | 601 kts | 57° |
| 2026-04-24 19:14 | 36.76541 | 146.83894 | 31123 ft | 601 kts | 57° |
| 2026-04-24 19:14 | 36.80607 | 146.93038 | 31124 ft | 602 kts | 57° |
| 2026-04-24 19:15 | 36.84643 | 147.02142 | 31127 ft | 602 kts | 57° |
| 2026-04-24 19:15 | 36.88707 | 147.11333 | 31140 ft | 603 kts | 57° |
| 2026-04-24 19:16 | 36.94755 | 147.25062 | 31125 ft | 603 kts | 57° |
| 2026-04-24 19:16 | 36.98793 | 147.34261 | 31121 ft | 602 kts | 57° |
| 2026-04-24 19:17 | 37.02822 | 147.43466 | 31113 ft | 602 kts | 57° |
| 2026-04-24 19:17 | 37.06822 | 147.52627 | 31111 ft | 602 kts | 57° |
| 2026-04-24 19:18 | 37.10832 | 147.61839 | 31117 ft | 602 kts | 58° |
| 2026-04-24 19:18 | 37.14847 | 147.71089 | 31117 ft | 603 kts | 58° |
| 2026-04-24 19:19 | 37.18831 | 147.80292 | 31110 ft | 604 kts | 58° |
| 2026-04-24 19:19 | 37.22837 | 147.89573 | 31106 ft | 604 kts | 58° |
| 2026-04-24 19:20 | 37.26813 | 147.98813 | 31115 ft | 605 kts | 58° |
| 2026-04-24 19:20 | 37.30814 | 148.08136 | 31106 ft | 605 kts | 58° |
| 2026-04-24 19:21 | 37.34809 | 148.17472 | 31098 ft | 605 kts | 58° |
| 2026-04-24 19:21 | 37.38770 | 148.26758 | 31105 ft | 606 kts | 58° |
| 2026-04-24 19:22 | 37.42759 | 148.36135 | 31104 ft | 606 kts | 58° |
| 2026-04-24 19:22 | 37.46704 | 148.45434 | 31096 ft | 605 kts | 58° |
| 2026-04-24 19:23 | 37.50667 | 148.54806 | 31105 ft | 605 kts | 58° |
| 2026-04-24 19:23 | 37.54625 | 148.64190 | 31128 ft | 605 kts | 58° |
| 2026-04-24 19:24 | 37.58554 | 148.73534 | 31094 ft | 605 kts | 58° |
| 2026-04-24 19:24 | 37.62498 | 148.82942 | 31074 ft | 605 kts | 58° |
| 2026-04-24 19:25 | 37.66403 | 148.92285 | 31089 ft | 605 kts | 58° |
| 2026-04-24 19:25 | 37.70324 | 149.01691 | 31086 ft | 605 kts | 58° |
| 2026-04-24 19:26 | 37.74249 | 149.11137 | 31078 ft | 606 kts | 58° |
| 2026-04-24 19:26 | 37.78144 | 149.20539 | 31076 ft | 607 kts | 58° |
| 2026-04-24 19:27 | 37.82068 | 149.30038 | 31074 ft | 607 kts | 59° |
| 2026-04-24 19:27 | 37.85951 | 149.39469 | 31068 ft | 607 kts | 59° |
| 2026-04-24 19:28 | 37.89857 | 149.48983 | 31066 ft | 607 kts | 59° |
| 2026-04-24 19:28 | 37.93730 | 149.58444 | 31065 ft | 607 kts | 59° |
| 2026-04-24 19:29 | 37.99552 | 149.72721 | 31056 ft | 608 kts | 59° |
| 2026-04-24 19:30 | 38.03428 | 149.82262 | 31060 ft | 608 kts | 59° |
| 2026-04-24 19:30 | 38.07280 | 149.91775 | 31070 ft | 608 kts | 59° |
| 2026-04-24 19:31 | 38.11120 | 150.01379 | 31048 ft | 610 kts | 62° |
| 2026-04-24 19:31 | 38.14589 | 150.11238 | 31046 ft | 610 kts | 64° |
| 2026-04-24 19:32 | 38.17919 | 150.21117 | 31049 ft | 611 kts | 64° |
| 2026-04-24 19:32 | 38.21264 | 150.31022 | 31039 ft | 612 kts | 64° |
| 2026-04-24 19:33 | 38.24654 | 150.40973 | 31032 ft | 612 kts | 64° |
| 2026-04-24 19:33 | 38.28048 | 150.50925 | 31091 ft | 613 kts | 64° |
| 2026-04-24 19:34 | 38.31415 | 150.60841 | 31027 ft | 613 kts | 64° |
| 2026-04-24 19:34 | 38.34789 | 150.70823 | 31022 ft | 610 kts | 64° |
| 2026-04-24 19:35 | 38.38136 | 150.80765 | 31034 ft | 609 kts | 64° |
| 2026-04-24 19:35 | 38.41454 | 150.90654 | 31019 ft | 609 kts | 64° |
| 2026-04-24 19:36 | 38.44765 | 151.00550 | 31014 ft | 609 kts | 64° |
| 2026-04-24 19:36 | 38.48088 | 151.10519 | 31004 ft | 610 kts | 64° |
| 2026-04-24 19:37 | 38.51414 | 151.20530 | 31013 ft | 612 kts | 64° |
| 2026-04-24 19:37 | 38.54723 | 151.30526 | 31016 ft | 614 kts | 64° |
| 2026-04-24 19:38 | 38.58045 | 151.40599 | 31007 ft | 615 kts | 64° |
| 2026-04-24 19:38 | 38.61342 | 151.50629 | 31008 ft | 615 kts | 64° |
| 2026-04-24 19:39 | 38.64660 | 151.60763 | 31007 ft | 615 kts | 64° |
| 2026-04-24 19:39 | 38.67941 | 151.70817 | 31008 ft | 615 kts | 65° |
| 2026-04-24 19:40 | 38.71239 | 151.80958 | 30998 ft | 615 kts | 65° |
| 2026-04-24 19:40 | 38.74503 | 151.91029 | 30998 ft | 614 kts | 65° |
| 2026-04-24 19:41 | 38.77772 | 152.01152 | 30993 ft | 614 kts | 65° |
| 2026-04-24 19:41 | 38.81015 | 152.11232 | 30996 ft | 614 kts | 65° |
| 2026-04-24 19:42 | 38.84268 | 152.21379 | 30995 ft | 615 kts | 65° |
| 2026-04-24 19:42 | 38.87519 | 152.31557 | 30994 ft | 615 kts | 65° |
| 2026-04-24 19:43 | 38.90747 | 152.41701 | 30985 ft | 615 kts | 65° |
| 2026-04-24 19:43 | 38.93981 | 152.51899 | 30990 ft | 615 kts | 65° |
| 2026-04-24 19:44 | 38.97187 | 152.62047 | 30990 ft | 616 kts | 65° |
| 2026-04-24 19:44 | 39.00391 | 152.72224 | 30989 ft | 616 kts | 66° |
| 2026-04-24 19:45 | 39.03597 | 152.82446 | 30987 ft | 616 kts | 66° |
| 2026-04-24 19:45 | 39.06257 | 152.90954 | 30991 ft | 616 kts | 66° |
| 2026-04-24 19:46 | 39.09967 | 153.02869 | 30984 ft | 616 kts | 66° |
| 2026-04-24 19:46 | 39.13153 | 153.13139 | 30997 ft | 616 kts | 66° |
| 2026-04-24 19:47 | 39.16330 | 153.23421 | 30987 ft | 616 kts | 66° |
| 2026-04-24 19:47 | 39.19476 | 153.33640 | 30984 ft | 617 kts | 66° |
| 2026-04-24 19:48 | 39.22638 | 153.43949 | 30995 ft | 617 kts | 66° |
| 2026-04-24 19:48 | 39.26833 | 153.57686 | 30973 ft | 618 kts | 66° |
| 2026-04-24 19:49 | 39.33098 | 153.78332 | 31036 ft | 618 kts | 66° |
| 2026-04-24 19:50 | 39.39330 | 153.99032 | 30965 ft | 614 kts | 66° |
| 2026-04-24 19:51 | 39.43935 | 154.14427 | 30968 ft | 611 kts | 67° |
| 2026-04-24 19:52 | 39.48497 | 154.29763 | 30969 ft | 610 kts | 67° |
| 2026-04-24 19:52 | 39.51545 | 154.40060 | 30958 ft | 612 kts | 67° |
| 2026-04-24 19:53 | 39.54572 | 154.50323 | 30968 ft | 614 kts | 67° |
| 2026-04-24 19:54 | 39.59146 | 154.65913 | 30967 ft | 617 kts | 67° |
| 2026-04-24 19:54 | 39.62175 | 154.76286 | 30965 ft | 618 kts | 68° |
| 2026-04-24 19:55 | 39.64703 | 154.84977 | 30960 ft | 618 kts | 68° |
| 2026-04-24 19:55 | 39.68242 | 154.97189 | 30953 ft | 617 kts | 68° |
| 2026-04-24 19:56 | 39.71236 | 155.07566 | 30958 ft | 617 kts | 68° |
| 2026-04-24 19:56 | 39.74246 | 155.18040 | 30955 ft | 616 kts | 68° |
| 2026-04-24 19:57 | 39.77224 | 155.28442 | 30956 ft | 616 kts | 68° |
| 2026-04-24 19:57 | 39.80204 | 155.38895 | 30947 ft | 616 kts | 68° |
| 2026-04-24 19:58 | 39.83182 | 155.49381 | 30944 ft | 616 kts | 68° |
| 2026-04-24 19:58 | 39.86129 | 155.59800 | 30946 ft | 616 kts | 68° |
| 2026-04-24 19:59 | 39.89072 | 155.70249 | 30948 ft | 617 kts | 68° |
| 2026-04-24 19:59 | 39.92029 | 155.80790 | 30942 ft | 617 kts | 68° |
| 2026-04-24 20:00 | 39.94958 | 155.91271 | 30942 ft | 618 kts | 69° |
| 2026-04-24 20:00 | 39.97891 | 156.01812 | 30937 ft | 618 kts | 69° |
| 2026-04-24 20:01 | 40.00820 | 156.12383 | 30942 ft | 619 kts | 69° |
| 2026-04-24 20:01 | 40.03723 | 156.22904 | 30938 ft | 619 kts | 69° |
| 2026-04-24 20:02 | 40.06142 | 156.31700 | 30931 ft | 619 kts | 69° |
| 2026-04-24 20:02 | 40.09532 | 156.44081 | 30926 ft | 619 kts | 69° |
| 2026-04-24 20:03 | 40.12404 | 156.54622 | 30931 ft | 619 kts | 69° |
| 2026-04-24 20:03 | 40.15289 | 156.65251 | 30922 ft | 620 kts | 69° |
| 2026-04-24 20:04 | 40.18155 | 156.75857 | 30918 ft | 620 kts | 69° |
| 2026-04-24 20:04 | 40.21020 | 156.86503 | 30913 ft | 620 kts | 69° |
| 2026-04-24 20:05 | 40.23876 | 156.97161 | 30916 ft | 621 kts | 69° |
| 2026-04-24 20:05 | 40.26713 | 157.07791 | 30916 ft | 621 kts | 70° |
| 2026-04-24 20:06 | 40.29561 | 157.18511 | 30903 ft | 622 kts | 70° |
| 2026-04-24 20:06 | 40.32399 | 157.29241 | 30957 ft | 621 kts | 70° |
| 2026-04-24 20:07 | 40.34743 | 157.38138 | 30906 ft | 618 kts | 70° |
| 2026-04-24 20:07 | 40.37985 | 157.50495 | 30892 ft | 614 kts | 70° |
| 2026-04-24 20:08 | 40.40751 | 157.61084 | 30894 ft | 612 kts | 70° |
| 2026-04-24 20:08 | 40.43489 | 157.71614 | 30895 ft | 612 kts | 70° |
| 2026-04-24 20:09 | 40.46238 | 157.82232 | 30894 ft | 614 kts | 70° |
| 2026-04-24 20:09 | 40.48969 | 157.92827 | 30894 ft | 616 kts | 70° |
| 2026-04-24 20:10 | 40.51714 | 158.03523 | 30892 ft | 617 kts | 70° |
| 2026-04-24 20:10 | 40.54436 | 158.14176 | 30881 ft | 618 kts | 70° |
| 2026-04-24 20:11 | 40.57165 | 158.24902 | 30870 ft | 618 kts | 70° |
| 2026-04-24 20:11 | 40.59883 | 158.35633 | 30876 ft | 617 kts | 71° |
| 2026-04-24 20:12 | 40.62594 | 158.46387 | 30879 ft | 617 kts | 71° |
| 2026-04-24 20:12 | 40.65274 | 158.57065 | 30874 ft | 617 kts | 71° |
| 2026-04-24 20:13 | 40.67958 | 158.67807 | 30878 ft | 617 kts | 71° |
| 2026-04-24 20:13 | 40.70629 | 158.78545 | 30863 ft | 617 kts | 71° |
| 2026-04-24 20:14 | 40.73292 | 158.89300 | 30846 ft | 616 kts | 71° |
| 2026-04-24 20:14 | 40.75931 | 159.00007 | 30863 ft | 616 kts | 71° |
| 2026-04-24 20:15 | 40.78574 | 159.10777 | 30847 ft | 617 kts | 71° |
| 2026-04-24 20:15 | 40.81209 | 159.21568 | 30845 ft | 617 kts | 71° |
| 2026-04-24 20:16 | 40.83836 | 159.32373 | 30848 ft | 617 kts | 71° |
| 2026-04-24 20:16 | 40.86441 | 159.43135 | 30834 ft | 618 kts | 72° |
| 2026-04-24 20:17 | 40.89036 | 159.53912 | 30832 ft | 617 kts | 72° |
| 2026-04-24 20:17 | 40.92930 | 159.70172 | 30849 ft | 617 kts | 72° |
| 2026-04-24 20:18 | 40.95500 | 159.80966 | 30814 ft | 618 kts | 72° |
| 2026-04-24 20:18 | 40.98071 | 159.91819 | 30836 ft | 617 kts | 72° |
| 2026-04-24 20:19 | 41.00637 | 160.02671 | 30815 ft | 616 kts | 72° |
| 2026-04-24 20:19 | 41.03281 | 160.13415 | 30821 ft | 616 kts | 71° |
| 2026-04-24 20:20 | 41.05981 | 160.24190 | 30820 ft | 615 kts | 71° |
| 2026-04-24 20:20 | 41.08656 | 160.34966 | 30800 ft | 615 kts | 71° |
| 2026-04-24 20:21 | 41.11289 | 160.45704 | 30817 ft | 614 kts | 71° |
| 2026-04-24 20:21 | 41.13919 | 160.56510 | 30798 ft | 614 kts | 72° |
| 2026-04-24 20:22 | 41.16526 | 160.67260 | 30801 ft | 614 kts | 72° |
| 2026-04-24 20:22 | 41.19134 | 160.78062 | 30796 ft | 614 kts | 72° |
| 2026-04-24 20:23 | 41.21733 | 160.88865 | 30780 ft | 611 kts | 72° |
| 2026-04-24 20:23 | 41.24292 | 160.99557 | 30784 ft | 608 kts | 72° |
| 2026-04-24 20:24 | 41.26837 | 161.10242 | 30776 ft | 605 kts | 72° |
| 2026-04-24 20:24 | 41.29371 | 161.20931 | 30780 ft | 604 kts | 72° |
| 2026-04-24 20:25 | 41.31872 | 161.31525 | 30774 ft | 604 kts | 72° |
| 2026-04-24 20:25 | 41.34386 | 161.42228 | 30780 ft | 606 kts | 72° |
| 2026-04-24 20:26 | 41.36894 | 161.52957 | 30774 ft | 607 kts | 72° |
| 2026-04-24 20:26 | 41.39386 | 161.63667 | 30778 ft | 608 kts | 73° |
| 2026-04-24 20:27 | 41.41885 | 161.74460 | 30761 ft | 609 kts | 73° |
| 2026-04-24 20:27 | 41.44364 | 161.85212 | 30772 ft | 609 kts | 73° |
| 2026-04-24 20:28 | 41.46839 | 161.96003 | 30755 ft | 608 kts | 73° |
| 2026-04-24 20:28 | 41.49296 | 162.06771 | 30766 ft | 608 kts | 73° |
| 2026-04-24 20:29 | 41.51750 | 162.17572 | 30743 ft | 608 kts | 73° |
| 2026-04-24 20:29 | 41.54192 | 162.28377 | 30737 ft | 607 kts | 73° |
| 2026-04-24 20:30 | 41.56624 | 162.39190 | 30747 ft | 607 kts | 73° |
| 2026-04-24 20:30 | 41.59031 | 162.49945 | 30747 ft | 608 kts | 73° |
| 2026-04-24 20:31 | 41.61448 | 162.60794 | 30752 ft | 609 kts | 73° |
| 2026-04-24 20:31 | 41.63846 | 162.71615 | 30745 ft | 609 kts | 73° |
| 2026-04-24 20:32 | 41.66248 | 162.82507 | 30743 ft | 609 kts | 73° |
| 2026-04-24 20:32 | 41.68633 | 162.93377 | 30730 ft | 608 kts | 74° |
| 2026-04-24 20:33 | 41.71007 | 163.04251 | 30734 ft | 607 kts | 74° |
| 2026-04-24 20:33 | 41.73346 | 163.15021 | 30730 ft | 606 kts | 74° |
| 2026-04-24 20:34 | 41.75694 | 163.25888 | 30745 ft | 606 kts | 74° |
| 2026-04-24 20:34 | 41.78029 | 163.36749 | 30722 ft | 606 kts | 74° |
| 2026-04-24 20:35 | 41.80341 | 163.47557 | 30729 ft | 607 kts | 74° |
| 2026-04-24 20:35 | 41.82660 | 163.58451 | 30727 ft | 607 kts | 74° |
| 2026-04-24 20:36 | 41.84579 | 163.67509 | 30709 ft | 608 kts | 74° |
| 2026-04-24 20:36 | 41.87257 | 163.80224 | 30752 ft | 608 kts | 75° |
| 2026-04-24 20:37 | 41.89161 | 163.89303 | 30751 ft | 606 kts | 75° |
| 2026-04-24 20:37 | 41.91808 | 164.01997 | 30707 ft | 600 kts | 75° |
| 2026-04-24 20:38 | 41.93670 | 164.10970 | 30710 ft | 597 kts | 75° |
| 2026-04-24 20:38 | 41.95875 | 164.21651 | 30716 ft | 595 kts | 75° |
| 2026-04-24 20:39 | 41.98081 | 164.32396 | 30725 ft | 596 kts | 75° |
| 2026-04-24 20:39 | 42.00285 | 164.43186 | 30708 ft | 598 kts | 75° |
| 2026-04-24 20:40 | 42.02472 | 164.53945 | 30717 ft | 599 kts | 75° |
| 2026-04-24 20:40 | 42.04662 | 164.64778 | 30714 ft | 600 kts | 75° |
| 2026-04-24 20:41 | 42.06846 | 164.75642 | 30700 ft | 600 kts | 76° |
| 2026-04-24 20:41 | 42.09015 | 164.86485 | 30707 ft | 598 kts | 76° |
| 2026-04-24 20:42 | 42.11155 | 164.97243 | 30706 ft | 597 kts | 76° |
| 2026-04-24 20:42 | 42.13308 | 165.08061 | 30688 ft | 596 kts | 76° |
| 2026-04-24 20:43 | 42.15453 | 165.18779 | 30702 ft | 594 kts | 76° |
| 2026-04-24 20:43 | 42.17600 | 165.29554 | 30706 ft | 594 kts | 76° |
| 2026-04-24 20:44 | 42.19734 | 165.40343 | 30706 ft | 594 kts | 76° |
| 2026-04-24 20:44 | 42.21842 | 165.51076 | 30705 ft | 595 kts | 76° |
| 2026-04-24 20:45 | 42.23956 | 165.61893 | 30706 ft | 595 kts | 76° |
| 2026-04-24 20:45 | 42.26059 | 165.72716 | 30708 ft | 596 kts | 76° |
| 2026-04-24 20:46 | 42.28143 | 165.83492 | 30697 ft | 595 kts | 76° |
| 2026-04-24 20:46 | 42.30226 | 165.94329 | 30703 ft | 594 kts | 77° |
| 2026-04-24 20:47 | 42.32283 | 166.05087 | 30702 ft | 593 kts | 77° |
| 2026-04-24 20:47 | 42.34339 | 166.15901 | 30677 ft | 593 kts | 77° |
| 2026-04-24 20:48 | 42.36368 | 166.26632 | 30707 ft | 591 kts | 77° |
| 2026-04-24 20:48 | 42.38397 | 166.37421 | 30704 ft | 591 kts | 77° |
| 2026-04-24 20:49 | 42.40414 | 166.48214 | 30706 ft | 590 kts | 77° |
| 2026-04-24 20:49 | 42.42418 | 166.58991 | 30698 ft | 590 kts | 78° |
| 2026-04-24 20:50 | 42.44397 | 166.69701 | 30698 ft | 589 kts | 78° |
| 2026-04-24 20:50 | 42.46377 | 166.80473 | 30703 ft | 589 kts | 78° |
| 2026-04-24 20:51 | 42.48348 | 166.91260 | 30725 ft | 589 kts | 78° |
| 2026-04-24 20:51 | 42.50300 | 167.02006 | 30695 ft | 590 kts | 78° |
| 2026-04-24 20:52 | 42.52249 | 167.12796 | 30706 ft | 588 kts | 78° |
| 2026-04-24 20:52 | 42.54189 | 167.23594 | 30684 ft | 588 kts | 78° |
| 2026-04-24 20:53 | 42.56115 | 167.34380 | 30709 ft | 587 kts | 79° |
| 2026-04-24 20:53 | 42.58015 | 167.45089 | 30721 ft | 587 kts | 79° |
| 2026-04-24 20:54 | 42.59920 | 167.55885 | 30726 ft | 588 kts | 79° |
| 2026-04-24 20:54 | 42.61815 | 167.66690 | 30718 ft | 588 kts | 79° |
| 2026-04-24 20:55 | 42.63692 | 167.77453 | 30721 ft | 588 kts | 79° |
| 2026-04-24 20:55 | 42.65571 | 167.88299 | 30726 ft | 589 kts | 79° |
| 2026-04-24 20:56 | 42.67445 | 167.99173 | 30715 ft | 589 kts | 79° |
| 2026-04-24 20:56 | 42.69296 | 168.09984 | 30722 ft | 589 kts | 79° |
| 2026-04-24 20:57 | 42.71143 | 168.20837 | 30728 ft | 588 kts | 79° |
| 2026-04-24 20:57 | 42.72970 | 168.31642 | 30730 ft | 588 kts | 79° |
| 2026-04-24 20:58 | 42.74793 | 168.42485 | 30724 ft | 586 kts | 80° |
| 2026-04-24 20:58 | 42.76593 | 168.53260 | 30725 ft | 586 kts | 80° |
| 2026-04-24 20:59 | 42.78392 | 168.64096 | 30730 ft | 586 kts | 80° |
| 2026-04-24 20:59 | 42.80169 | 168.74865 | 30732 ft | 585 kts | 81° |
| 2026-04-24 21:00 | 42.81943 | 168.85685 | 30741 ft | 584 kts | 81° |
| 2026-04-24 21:00 | 42.83706 | 168.96505 | 30739 ft | 583 kts | 81° |
| 2026-04-24 21:01 | 42.85451 | 169.07290 | 30740 ft | 583 kts | 81° |
| 2026-04-24 21:01 | 42.87179 | 169.18030 | 30741 ft | 583 kts | 81° |
| 2026-04-24 21:02 | 42.88910 | 169.28865 | 30748 ft | 583 kts | 81° |
| 2026-04-24 21:02 | 42.90620 | 169.39631 | 30752 ft | 583 kts | 81° |
| 2026-04-24 21:03 | 42.92330 | 169.50473 | 30741 ft | 583 kts | 81° |
| 2026-04-24 21:03 | 42.94018 | 169.61242 | 30766 ft | 583 kts | 81° |
| 2026-04-24 21:04 | 42.95711 | 169.72116 | 30768 ft | 583 kts | 81° |
| 2026-04-24 21:04 | 42.97378 | 169.82899 | 30755 ft | 584 kts | 81° |
| 2026-04-24 21:05 | 42.99048 | 169.93758 | 30787 ft | 584 kts | 82° |
| 2026-04-24 21:05 | 43.01010 | 170.04567 | 30772 ft | 587 kts | 73° |
| 2026-04-24 21:06 | 43.03664 | 170.15045 | 30764 ft | 587 kts | 72° |
| 2026-04-24 21:06 | 43.06382 | 170.25598 | 30767 ft | 587 kts | 72° |
| 2026-04-24 21:07 | 43.09041 | 170.36167 | 30777 ft | 587 kts | 73° |
| 2026-04-24 21:07 | 43.11643 | 170.46706 | 30785 ft | 587 kts | 73° |
| 2026-04-24 21:08 | 43.14248 | 170.57334 | 30765 ft | 587 kts | 73° |
| 2026-04-24 21:08 | 43.16843 | 170.67952 | 30781 ft | 587 kts | 73° |
| 2026-04-24 21:09 | 43.19416 | 170.78511 | 30794 ft | 588 kts | 73° |
| 2026-04-24 21:09 | 43.21999 | 170.89158 | 30805 ft | 588 kts | 73° |
| 2026-04-24 21:10 | 43.24575 | 170.99827 | 30812 ft | 588 kts | 73° |
| 2026-04-24 21:10 | 43.27125 | 171.10441 | 30798 ft | 588 kts | 73° |
| 2026-04-24 21:11 | 43.29675 | 171.21106 | 30851 ft | 588 kts | 73° |
| 2026-04-24 21:11 | 43.32223 | 171.31810 | 30810 ft | 587 kts | 73° |
| 2026-04-24 21:12 | 43.34323 | 171.40675 | 30814 ft | 586 kts | 73° |
| 2026-04-24 21:12 | 43.37248 | 171.53072 | 30828 ft | 585 kts | 73° |
| 2026-04-24 21:13 | 43.39748 | 171.63729 | 30827 ft | 584 kts | 73° |
| 2026-04-24 21:13 | 43.42234 | 171.74374 | 30829 ft | 584 kts | 73° |
| 2026-04-24 21:14 | 43.44700 | 171.84987 | 30836 ft | 585 kts | 73° |
| 2026-04-24 21:14 | 43.47177 | 171.95694 | 30848 ft | 586 kts | 73° |
| 2026-04-24 21:15 | 43.49631 | 172.06359 | 30833 ft | 587 kts | 73° |
| 2026-04-24 21:15 | 43.52093 | 172.17105 | 30855 ft | 587 kts | 73° |
| 2026-04-24 21:16 | 43.54544 | 172.27858 | 30847 ft | 587 kts | 73° |
| 2026-04-24 21:16 | 43.56975 | 172.38578 | 30858 ft | 587 kts | 73° |
| 2026-04-24 21:17 | 43.59406 | 172.49349 | 30858 ft | 587 kts | 73° |
| 2026-04-24 21:17 | 43.61416 | 172.58296 | 30859 ft | 586 kts | 73° |
| 2026-04-24 21:18 | 43.64211 | 172.70797 | 30852 ft | 584 kts | 73° |
| 2026-04-24 21:18 | 43.66594 | 172.81515 | 30862 ft | 583 kts | 73° |
| 2026-04-24 21:19 | 43.68951 | 172.92170 | 30864 ft | 583 kts | 74° |
| 2026-04-24 21:19 | 43.71316 | 173.02916 | 30871 ft | 583 kts | 74° |
| 2026-04-24 21:20 | 43.74830 | 173.18982 | 30868 ft | 583 kts | 74° |
| 2026-04-24 21:21 | 43.77169 | 173.29743 | 30867 ft | 583 kts | 74° |
| 2026-04-24 21:21 | 43.79484 | 173.40444 | 30872 ft | 583 kts | 74° |
| 2026-04-24 21:22 | 43.81803 | 173.51221 | 30883 ft | 583 kts | 74° |
| 2026-04-24 21:22 | 43.84098 | 173.61947 | 30872 ft | 583 kts | 74° |
| 2026-04-24 21:23 | 43.86396 | 173.72735 | 30911 ft | 583 kts | 74° |
| 2026-04-24 21:23 | 43.88681 | 173.83523 | 30889 ft | 582 kts | 74° |
| 2026-04-24 21:24 | 43.90951 | 173.94294 | 30894 ft | 581 kts | 74° |
| 2026-04-24 21:24 | 43.93191 | 174.04979 | 30893 ft | 580 kts | 74° |
| 2026-04-24 21:25 | 43.95436 | 174.15744 | 30896 ft | 579 kts | 74° |
| 2026-04-24 21:25 | 43.97671 | 174.26512 | 30898 ft | 579 kts | 75° |
| 2026-04-24 21:26 | 43.99875 | 174.37195 | 30892 ft | 579 kts | 74° |
| 2026-04-24 21:26 | 44.01718 | 174.46169 | 30901 ft | 579 kts | 74° |
| 2026-04-24 21:27 | 44.04278 | 174.58698 | 30906 ft | 579 kts | 75° |
| 2026-04-24 21:27 | 44.06472 | 174.69502 | 30895 ft | 580 kts | 74° |
| 2026-04-24 21:28 | 44.08286 | 174.78478 | 30915 ft | 580 kts | 74° |
| 2026-04-24 21:28 | 44.10467 | 174.89321 | 30900 ft | 580 kts | 74° |
| 2026-04-24 21:29 | 44.12618 | 175.00077 | 30935 ft | 580 kts | 75° |
| 2026-04-24 21:29 | 44.14772 | 175.10905 | 30905 ft | 578 kts | 74° |
| 2026-04-24 21:30 | 44.16907 | 175.21695 | 30910 ft | 576 kts | 75° |
| 2026-04-24 21:30 | 44.19018 | 175.32425 | 30926 ft | 575 kts | 75° |
| 2026-04-24 21:31 | 44.21122 | 175.43177 | 30908 ft | 574 kts | 75° |
| 2026-04-24 21:31 | 44.23217 | 175.53945 | 30921 ft | 574 kts | 74° |
| 2026-04-24 21:32 | 44.25301 | 175.64712 | 30932 ft | 574 kts | 75° |
| 2026-04-24 21:32 | 44.27364 | 175.75427 | 30940 ft | 575 kts | 75° |
| 2026-04-24 21:33 | 44.29434 | 175.86248 | 30944 ft | 575 kts | 75° |
| 2026-04-24 21:33 | 44.31480 | 175.96996 | 30950 ft | 575 kts | 75° |
| 2026-04-24 21:34 | 44.33527 | 176.07813 | 30943 ft | 575 kts | 75° |
| 2026-04-24 21:34 | 44.35549 | 176.18558 | 30950 ft | 574 kts | 75° |
| 2026-04-24 21:35 | 44.37575 | 176.29391 | 30961 ft | 575 kts | 75° |
| 2026-04-24 21:35 | 44.39590 | 176.40223 | 30958 ft | 574 kts | 75° |
| 2026-04-24 21:36 | 44.41581 | 176.50987 | 30964 ft | 574 kts | 75° |
| 2026-04-24 21:36 | 44.43574 | 176.61823 | 30964 ft | 574 kts | 75° |
| 2026-04-24 21:37 | 44.45540 | 176.72580 | 30970 ft | 573 kts | 75° |
| 2026-04-24 21:37 | 44.47511 | 176.83421 | 30978 ft | 573 kts | 75° |
| 2026-04-24 21:38 | 44.49469 | 176.94262 | 30978 ft | 573 kts | 75° |
| 2026-04-24 21:38 | 44.51405 | 177.05042 | 30978 ft | 573 kts | 75° |
| 2026-04-24 21:39 | 44.53345 | 177.15902 | 30994 ft | 573 kts | 75° |
| 2026-04-24 21:39 | 44.55272 | 177.26761 | 30993 ft | 574 kts | 75° |
| 2026-04-24 21:40 | 44.57181 | 177.37581 | 30995 ft | 574 kts | 75° |
| 2026-04-24 21:40 | 44.59091 | 177.48471 | 31021 ft | 574 kts | 75° |
| 2026-04-24 21:41 | 44.60991 | 177.59372 | 31007 ft | 575 kts | 75° |
| 2026-04-24 21:41 | 44.62884 | 177.70303 | 31004 ft | 575 kts | 75° |
| 2026-04-24 21:42 | 44.64753 | 177.81156 | 31010 ft | 575 kts | 75° |
| 2026-04-24 21:42 | 44.66624 | 177.92091 | 31012 ft | 574 kts | 75° |
| 2026-04-24 21:43 | 44.68485 | 178.03035 | 31020 ft | 574 kts | 75° |
| 2026-04-24 21:43 | 44.70320 | 178.13894 | 31014 ft | 574 kts | 75° |
| 2026-04-24 21:44 | 44.72158 | 178.24843 | 31023 ft | 574 kts | 75° |
| 2026-04-24 21:44 | 44.73976 | 178.35736 | 31036 ft | 574 kts | 75° |
| 2026-04-24 21:45 | 44.75793 | 178.46688 | 31030 ft | 574 kts | 76° |
| 2026-04-24 21:45 | 44.77591 | 178.57605 | 31041 ft | 574 kts | 75° |
| 2026-04-24 21:46 | 44.79384 | 178.68559 | 31038 ft | 574 kts | 75° |
| 2026-04-24 21:46 | 44.81160 | 178.79481 | 31060 ft | 575 kts | 76° |
| 2026-04-24 21:47 | 44.82937 | 178.90475 | 31049 ft | 574 kts | 75° |
| 2026-04-24 21:47 | 44.84688 | 179.01386 | 31052 ft | 574 kts | 76° |
| 2026-04-24 21:48 | 44.86438 | 179.12356 | 31061 ft | 573 kts | 76° |
| 2026-04-24 21:48 | 44.88177 | 179.23335 | 31061 ft | 573 kts | 76° |
| 2026-04-24 21:49 | 44.89896 | 179.34256 | 31065 ft | 572 kts | 76° |
| 2026-04-24 21:49 | 44.91610 | 179.45224 | 31069 ft | 571 kts | 76° |
| 2026-04-24 21:50 | 44.93313 | 179.56190 | 31070 ft | 571 kts | 76° |
| 2026-04-24 21:50 | 44.94993 | 179.67088 | 31069 ft | 571 kts | 76° |
| 2026-04-24 21:51 | 44.96674 | 179.78057 | 31079 ft | 571 kts | 76° |
| 2026-04-24 21:51 | 44.98344 | 179.89031 | 31084 ft | 570 kts | 76° |
| 2026-04-24 21:52 | 44.99931 | 179.99973 | 31075 ft | 571 kts | 79° |
| 2026-04-24 21:52 | 45.00614 | -179.88827 | 31113 ft | 571 kts | 86° |
| 2026-04-24 21:53 | 45.01002 | -179.77653 | 31082 ft | 571 kts | 87° |
| 2026-04-24 21:53 | 45.01411 | -179.66426 | 31092 ft | 571 kts | 86° |
| 2026-04-24 21:54 | 45.01852 | -179.55269 | 31096 ft | 571 kts | 86° |
| 2026-04-24 21:54 | 45.02299 | -179.44072 | 31100 ft | 571 kts | 86° |
| 2026-04-24 21:55 | 45.02736 | -179.32827 | 31099 ft | 571 kts | 86° |
| 2026-04-24 21:55 | 45.03153 | -179.21698 | 31099 ft | 571 kts | 86° |
| 2026-04-24 21:56 | 45.03560 | -179.10478 | 31104 ft | 570 kts | 86° |
| 2026-04-24 21:56 | 45.03957 | -178.99260 | 31108 ft | 570 kts | 86° |
| 2026-04-24 21:57 | 45.04340 | -178.88129 | 31109 ft | 570 kts | 86° |
| 2026-04-24 21:57 | 45.04714 | -178.76934 | 31109 ft | 569 kts | 86° |
| 2026-04-24 21:58 | 45.05078 | -178.65717 | 31114 ft | 569 kts | 86° |
| 2026-04-24 21:58 | 45.05429 | -178.54590 | 31116 ft | 569 kts | 86° |
| 2026-04-24 21:59 | 45.05770 | -178.43400 | 31114 ft | 569 kts | 86° |
| 2026-04-24 21:59 | 45.06098 | -178.32282 | 31120 ft | 568 kts | 86° |
| 2026-04-24 22:00 | 45.06417 | -178.21106 | 31127 ft | 567 kts | 87° |
| 2026-04-24 22:00 | 45.06725 | -178.09931 | 31130 ft | 567 kts | 87° |
| 2026-04-24 22:01 | 45.07022 | -177.98776 | 31132 ft | 567 kts | 87° |
| 2026-04-24 22:01 | 45.07306 | -177.87689 | 31126 ft | 567 kts | 87° |
| 2026-04-24 22:02 | 45.07581 | -177.76514 | 31131 ft | 566 kts | 87° |
| 2026-04-24 22:02 | 45.07843 | -177.65427 | 31129 ft | 566 kts | 87° |
| 2026-04-24 22:03 | 45.08097 | -177.54261 | 31135 ft | 566 kts | 87° |
| 2026-04-24 22:03 | 45.08339 | -177.43137 | 31133 ft | 566 kts | 87° |
| 2026-04-24 22:04 | 45.08568 | -177.32065 | 31136 ft | 565 kts | 87° |
| 2026-04-24 22:04 | 45.08789 | -177.20913 | 31140 ft | 565 kts | 87° |
| 2026-04-24 22:05 | 45.08998 | -177.09784 | 31138 ft | 565 kts | 87° |
| 2026-04-24 22:05 | 45.09195 | -176.98734 | 31144 ft | 565 kts | 87° |
| 2026-04-24 22:06 | 45.09383 | -176.87590 | 31145 ft | 565 kts | 87° |
| 2026-04-24 22:06 | 45.09560 | -176.76459 | 31146 ft | 565 kts | 88° |
| 2026-04-24 22:07 | 45.09725 | -176.65387 | 31148 ft | 565 kts | 88° |
| 2026-04-24 22:07 | 45.09881 | -176.54244 | 31140 ft | 565 kts | 88° |
| 2026-04-24 22:08 | 45.10024 | -176.43187 | 31153 ft | 564 kts | 88° |
| 2026-04-24 22:08 | 45.10158 | -176.32066 | 31152 ft | 564 kts | 88° |
| 2026-04-24 22:09 | 45.10280 | -176.20959 | 31150 ft | 564 kts | 88° |
| 2026-04-24 22:09 | 45.10392 | -176.09910 | 31143 ft | 563 kts | 88° |
| 2026-04-24 22:10 | 45.10493 | -175.98808 | 31147 ft | 562 kts | 88° |
| 2026-04-24 22:10 | 45.10583 | -175.87727 | 31156 ft | 562 kts | 88° |
| 2026-04-24 22:11 | 45.10662 | -175.76721 | 31159 ft | 562 kts | 88° |
| 2026-04-24 22:11 | 45.10731 | -175.65628 | 31163 ft | 562 kts | 88° |
| 2026-04-24 22:12 | 45.10789 | -175.54609 | 31165 ft | 562 kts | 88° |
| 2026-04-24 22:12 | 45.10836 | -175.43533 | 31165 ft | 562 kts | 88° |
| 2026-04-24 22:13 | 45.10873 | -175.32434 | 31167 ft | 562 kts | 89° |
| 2026-04-24 22:13 | 45.10899 | -175.21427 | 31160 ft | 562 kts | 89° |
| 2026-04-24 22:14 | 45.10914 | -175.10358 | 31164 ft | 562 kts | 89° |
| 2026-04-24 22:14 | 45.10919 | -174.99291 | 31153 ft | 562 kts | 89° |
| 2026-04-24 22:15 | 45.10913 | -174.88212 | 31173 ft | 561 kts | 89° |
| 2026-04-24 22:15 | 45.10897 | -174.77216 | 31164 ft | 561 kts | 89° |
| 2026-04-24 22:16 | 45.10869 | -174.66134 | 31174 ft | 561 kts | 89° |
| 2026-04-24 22:16 | 45.10831 | -174.55123 | 31170 ft | 561 kts | 89° |
| 2026-04-24 22:17 | 45.10792 | -174.45917 | 31165 ft | 561 kts | 89° |
| 2026-04-24 22:17 | 45.10734 | -174.34824 | 31176 ft | 561 kts | 89° |
| 2026-04-24 22:18 | 45.10654 | -174.21946 | 31168 ft | 561 kts | 90° |
| 2026-04-24 22:18 | 45.10573 | -174.10924 | 31178 ft | 562 kts | 90° |
| 2026-04-24 22:19 | 45.10498 | -174.01722 | 31179 ft | 562 kts | 90° |
| 2026-04-24 22:19 | 45.10398 | -173.90645 | 31169 ft | 562 kts | 90° |
| 2026-04-24 22:20 | 45.10287 | -173.79560 | 31175 ft | 562 kts | 90° |
| 2026-04-24 22:20 | 45.10165 | -173.68480 | 31167 ft | 562 kts | 90° |
| 2026-04-24 22:21 | 45.10033 | -173.57469 | 31169 ft | 562 kts | 90° |
| 2026-04-24 22:21 | 45.09890 | -173.46398 | 31163 ft | 563 kts | 90° |
| 2026-04-24 22:22 | 45.09736 | -173.35291 | 31180 ft | 563 kts | 90° |
| 2026-04-24 22:22 | 45.09572 | -173.24269 | 31182 ft | 563 kts | 90° |
| 2026-04-24 22:23 | 45.09397 | -173.13182 | 31185 ft | 563 kts | 90° |
| 2026-04-24 22:23 | 45.09210 | -173.02090 | 31179 ft | 563 kts | 90° |
| 2026-04-24 22:24 | 45.09014 | -172.91010 | 31170 ft | 563 kts | 90° |
| 2026-04-24 22:24 | 45.08807 | -172.79962 | 31170 ft | 563 kts | 90° |
| 2026-04-24 22:25 | 45.08588 | -172.68852 | 31161 ft | 563 kts | 90° |
| 2026-04-24 22:25 | 45.08360 | -172.57827 | 31183 ft | 563 kts | 91° |
| 2026-04-24 22:26 | 45.08120 | -172.46746 | 31171 ft | 563 kts | 91° |
| 2026-04-24 22:26 | 45.07870 | -172.35655 | 31172 ft | 563 kts | 91° |
| 2026-04-24 22:27 | 45.07608 | -172.24563 | 31169 ft | 563 kts | 91° |
| 2026-04-24 22:27 | 45.07338 | -172.13555 | 31181 ft | 563 kts | 91° |
| 2026-04-24 22:28 | 45.07055 | -172.02459 | 31178 ft | 563 kts | 91° |
| 2026-04-24 22:28 | 45.06763 | -171.91429 | 31181 ft | 563 kts | 91° |
| 2026-04-24 22:29 | 45.06302 | -171.74764 | 31180 ft | 564 kts | 91° |
| 2026-04-24 22:29 | 45.05983 | -171.63733 | 31179 ft | 564 kts | 91° |
| 2026-04-24 22:30 | 45.05652 | -171.52637 | 31183 ft | 564 kts | 91° |
| 2026-04-24 22:30 | 45.05312 | -171.41606 | 31182 ft | 564 kts | 91° |
| 2026-04-24 22:31 | 45.04959 | -171.30494 | 31186 ft | 565 kts | 91° |
| 2026-04-24 22:31 | 45.04594 | -171.19375 | 31217 ft | 565 kts | 91° |
| 2026-04-24 22:32 | 45.04221 | -171.08299 | 31187 ft | 566 kts | 91° |
| 2026-04-24 22:32 | 45.03834 | -170.97154 | 31193 ft | 567 kts | 91° |
| 2026-04-24 22:33 | 45.03436 | -170.86005 | 31178 ft | 568 kts | 91° |
| 2026-04-24 22:33 | 45.03026 | -170.74840 | 31185 ft | 568 kts | 91° |
| 2026-04-24 22:34 | 45.02608 | -170.63743 | 31186 ft | 569 kts | 91° |
| 2026-04-24 22:34 | 45.02176 | -170.52554 | 31185 ft | 569 kts | 92° |
| 2026-04-24 22:35 | 45.01736 | -170.41432 | 31188 ft | 569 kts | 92° |
| 2026-04-24 22:35 | 45.01281 | -170.30237 | 31177 ft | 569 kts | 92° |
| 2026-04-24 22:36 | 45.00819 | -170.19121 | 31177 ft | 569 kts | 92° |
| 2026-04-24 22:36 | 45.00344 | -170.07937 | 31187 ft | 569 kts | 92° |
| 2026-04-24 22:37 | 44.99850 | -169.96749 | 31173 ft | 569 kts | 92° |
| 2026-04-24 22:37 | 44.99245 | -169.85654 | 31193 ft | 570 kts | 93° |
| 2026-04-24 22:38 | 44.98580 | -169.74474 | 31185 ft | 570 kts | 94° |
| 2026-04-24 22:38 | 44.97915 | -169.63292 | 31198 ft | 570 kts | 93° |
| 2026-04-24 22:39 | 44.97260 | -169.52181 | 31179 ft | 570 kts | 93° |
| 2026-04-24 22:39 | 44.96595 | -169.41015 | 31182 ft | 571 kts | 93° |
| 2026-04-24 22:40 | 44.95917 | -169.29819 | 31186 ft | 571 kts | 93° |
| 2026-04-24 22:40 | 44.95231 | -169.18710 | 31178 ft | 571 kts | 93° |
| 2026-04-24 22:41 | 44.94527 | -169.07494 | 31193 ft | 572 kts | 94° |
| 2026-04-24 22:41 | 44.93813 | -168.96288 | 31196 ft | 572 kts | 94° |
| 2026-04-24 22:42 | 44.93092 | -168.85157 | 31187 ft | 572 kts | 94° |
| 2026-04-24 22:42 | 44.92356 | -168.73948 | 31193 ft | 572 kts | 94° |
| 2026-04-24 22:43 | 44.91609 | -168.62752 | 31189 ft | 573 kts | 94° |
| 2026-04-24 22:43 | 44.90854 | -168.51598 | 31187 ft | 573 kts | 94° |
| 2026-04-24 22:44 | 44.90083 | -168.40380 | 31187 ft | 574 kts | 94° |
| 2026-04-24 22:44 | 44.89305 | -168.29220 | 31184 ft | 574 kts | 94° |
| 2026-04-24 22:45 | 44.88511 | -168.17985 | 31191 ft | 574 kts | 94° |
| 2026-04-24 22:45 | 44.87712 | -168.06832 | 31186 ft | 575 kts | 94° |
| 2026-04-24 22:46 | 44.86894 | -167.95588 | 31180 ft | 575 kts | 94° |
| 2026-04-24 22:46 | 44.86073 | -167.84446 | 31178 ft | 575 kts | 94° |
| 2026-04-24 22:47 | 44.85234 | -167.73209 | 31186 ft | 574 kts | 94° |
| 2026-04-24 22:47 | 44.84389 | -167.62050 | 31180 ft | 575 kts | 94° |
| 2026-04-24 22:48 | 44.83528 | -167.50820 | 31194 ft | 575 kts | 94° |
| 2026-04-24 22:48 | 44.82664 | -167.39687 | 31194 ft | 575 kts | 94° |
| 2026-04-24 22:49 | 44.81782 | -167.28480 | 31178 ft | 575 kts | 94° |
| 2026-04-24 22:49 | 44.80889 | -167.17275 | 31180 ft | 576 kts | 94° |
| 2026-04-24 22:50 | 44.79988 | -167.06108 | 31192 ft | 576 kts | 95° |
| 2026-04-24 22:50 | 44.79072 | -166.94888 | 31178 ft | 576 kts | 94° |
| 2026-04-24 22:51 | 44.78143 | -166.83659 | 31186 ft | 576 kts | 95° |
| 2026-04-24 22:51 | 44.77209 | -166.72492 | 31170 ft | 577 kts | 95° |
| 2026-04-24 22:52 | 44.76258 | -166.61264 | 31214 ft | 577 kts | 95° |
| 2026-04-24 22:52 | 44.75302 | -166.50111 | 31182 ft | 578 kts | 95° |
| 2026-04-24 22:53 | 44.74327 | -166.38865 | 31187 ft | 578 kts | 95° |
| 2026-04-24 22:53 | 44.73342 | -166.27639 | 31193 ft | 578 kts | 95° |
| 2026-04-24 22:54 | 44.72345 | -166.16406 | 31185 ft | 578 kts | 95° |
| 2026-04-24 22:54 | 44.71344 | -166.05245 | 31187 ft | 579 kts | 95° |
| 2026-04-24 22:55 | 44.70323 | -165.93997 | 31189 ft | 579 kts | 95° |
| 2026-04-24 22:55 | 44.69291 | -165.82752 | 31191 ft | 579 kts | 95° |
| 2026-04-24 22:56 | 44.68255 | -165.71575 | 31203 ft | 581 kts | 95° |
| 2026-04-24 22:56 | 44.67197 | -165.60292 | 31207 ft | 581 kts | 95° |
| 2026-04-24 22:57 | 44.66129 | -165.49030 | 31200 ft | 581 kts | 95° |
| 2026-04-24 22:57 | 44.65058 | -165.37858 | 31202 ft | 580 kts | 95° |
| 2026-04-24 22:58 | 44.63969 | -165.26612 | 31214 ft | 580 kts | 95° |
| 2026-04-24 22:58 | 44.62869 | -165.15368 | 31212 ft | 580 kts | 95° |
| 2026-04-24 22:59 | 44.61764 | -165.04193 | 31219 ft | 581 kts | 95° |
| 2026-04-24 23:00 | 44.60075 | -164.87320 | 31218 ft | 581 kts | 95° |
| 2026-04-24 23:00 | 44.58936 | -164.76085 | 31222 ft | 581 kts | 95° |
| 2026-04-24 23:01 | 44.57790 | -164.64906 | 31225 ft | 582 kts | 95° |
| 2026-04-24 23:01 | 44.56628 | -164.53666 | 31222 ft | 582 kts | 95° |
| 2026-04-24 23:02 | 44.55452 | -164.42407 | 31223 ft | 582 kts | 95° |
| 2026-04-24 23:02 | 44.54272 | -164.31227 | 31234 ft | 582 kts | 95° |
| 2026-04-24 23:03 | 44.53077 | -164.20007 | 31237 ft | 582 kts | 95° |
| 2026-04-24 23:03 | 44.51877 | -164.08845 | 31239 ft | 581 kts | 95° |
| 2026-04-24 23:04 | 44.50658 | -163.97617 | 31246 ft | 581 kts | 95° |
| 2026-04-24 23:04 | 44.49435 | -163.86455 | 31246 ft | 581 kts | 95° |
| 2026-04-24 23:05 | 44.48193 | -163.75229 | 31250 ft | 581 kts | 96° |
| 2026-04-24 23:05 | 44.46944 | -163.64035 | 31234 ft | 581 kts | 96° |
| 2026-04-24 23:06 | 44.45692 | -163.52922 | 31255 ft | 580 kts | 96° |
| 2026-04-24 23:06 | 44.44423 | -163.41757 | 31266 ft | 580 kts | 96° |
| 2026-04-24 23:07 | 44.43144 | -163.30606 | 31262 ft | 579 kts | 96° |
| 2026-04-24 23:07 | 44.41864 | -163.19541 | 31274 ft | 579 kts | 96° |
| 2026-04-24 23:08 | 44.40563 | -163.08399 | 31274 ft | 579 kts | 96° |
| 2026-04-24 23:08 | 44.39475 | -162.99155 | 31280 ft | 578 kts | 96° |
| 2026-04-24 23:09 | 44.38165 | -162.88103 | 31280 ft | 578 kts | 96° |
| 2026-04-24 23:09 | 44.36840 | -162.77026 | 31286 ft | 577 kts | 96° |
| 2026-04-24 23:10 | 44.35285 | -162.64152 | 31288 ft | 576 kts | 97° |
| 2026-04-24 23:10 | 44.34161 | -162.54917 | 31279 ft | 575 kts | 97° |
| 2026-04-24 23:11 | 44.32817 | -162.43958 | 31292 ft | 574 kts | 97° |
| 2026-04-24 23:11 | 44.31455 | -162.32950 | 31295 ft | 573 kts | 97° |
| 2026-04-24 23:12 | 44.30096 | -162.22049 | 31295 ft | 573 kts | 97° |
| 2026-04-24 23:12 | 44.28717 | -162.11080 | 31311 ft | 573 kts | 97° |
| 2026-04-24 23:13 | 44.27327 | -162.00109 | 31304 ft | 573 kts | 97° |
| 2026-04-24 23:13 | 44.25937 | -161.89231 | 31304 ft | 572 kts | 98° |
| 2026-04-24 23:14 | 44.24528 | -161.78287 | 31321 ft | 572 kts | 98° |
| 2026-04-24 23:14 | 44.23109 | -161.67350 | 31317 ft | 571 kts | 98° |
| 2026-04-24 23:15 | 44.21690 | -161.56505 | 31304 ft | 570 kts | 98° |
| 2026-04-24 23:15 | 44.20264 | -161.45687 | 31319 ft | 569 kts | 98° |
| 2026-04-24 23:16 | 44.18823 | -161.34833 | 31319 ft | 568 kts | 99° |
| 2026-04-24 23:16 | 44.17374 | -161.24002 | 31317 ft | 567 kts | 99° |
| 2026-04-24 23:17 | 44.15925 | -161.13251 | 31321 ft | 567 kts | 99° |
| 2026-04-24 23:17 | 44.14460 | -161.02465 | 31322 ft | 566 kts | 99° |
| 2026-04-24 23:18 | 44.12983 | -160.91670 | 31325 ft | 566 kts | 99° |
| 2026-04-24 23:18 | 44.11504 | -160.80940 | 31328 ft | 566 kts | 99° |
| 2026-04-24 23:19 | 44.10008 | -160.70169 | 31327 ft | 566 kts | 99° |
| 2026-04-24 23:19 | 44.08512 | -160.59475 | 31327 ft | 566 kts | 99° |
| 2026-04-24 23:20 | 44.06994 | -160.48700 | 31337 ft | 566 kts | 100° |
| 2026-04-24 23:20 | 44.05479 | -160.38018 | 31322 ft | 566 kts | 100° |
| 2026-04-24 23:21 | 44.03946 | -160.27283 | 31327 ft | 565 kts | 100° |
| 2026-04-24 23:21 | 44.02406 | -160.16578 | 31368 ft | 565 kts | 101° |
| 2026-04-24 23:22 | 44.00863 | -160.05922 | 31340 ft | 565 kts | 101° |
| 2026-04-24 23:22 | 43.99296 | -159.95229 | 31339 ft | 563 kts | 101° |
| 2026-04-24 23:23 | 43.97677 | -159.84578 | 31341 ft | 562 kts | 102° |
| 2026-04-24 23:23 | 43.96052 | -159.74023 | 31346 ft | 561 kts | 102° |
| 2026-04-24 23:24 | 43.94415 | -159.63421 | 31349 ft | 561 kts | 102° |
| 2026-04-24 23:24 | 43.92783 | -159.52877 | 31347 ft | 560 kts | 102° |
| 2026-04-24 23:25 | 43.91135 | -159.42298 | 31347 ft | 560 kts | 102° |
| 2026-04-24 23:25 | 43.89477 | -159.31721 | 31333 ft | 560 kts | 102° |
| 2026-04-24 23:26 | 43.87822 | -159.21232 | 31347 ft | 559 kts | 102° |
| 2026-04-24 23:26 | 43.86150 | -159.10702 | 31353 ft | 558 kts | 103° |
| 2026-04-24 23:27 | 43.84471 | -159.00198 | 31350 ft | 558 kts | 103° |
| 2026-04-24 23:27 | 43.82785 | -158.89717 | 31342 ft | 556 kts | 103° |
| 2026-04-24 23:28 | 43.81102 | -158.79321 | 31347 ft | 555 kts | 103° |
| 2026-04-24 23:28 | 43.79400 | -158.68871 | 31352 ft | 555 kts | 103° |
| 2026-04-24 23:29 | 43.77700 | -158.58490 | 31364 ft | 554 kts | 103° |
| 2026-04-24 23:29 | 43.75984 | -158.48081 | 31362 ft | 554 kts | 103° |
| 2026-04-24 23:30 | 43.74270 | -158.37750 | 31357 ft | 553 kts | 103° |
| 2026-04-24 23:30 | 43.72540 | -158.27378 | 31351 ft | 552 kts | 104° |
| 2026-04-24 23:31 | 43.70806 | -158.17049 | 31362 ft | 550 kts | 104° |
| 2026-04-24 23:31 | 43.69077 | -158.06809 | 31358 ft | 549 kts | 104° |
| 2026-04-24 23:32 | 43.67330 | -157.96524 | 31364 ft | 548 kts | 104° |
| 2026-04-24 23:32 | 43.65589 | -157.86327 | 31359 ft | 547 kts | 104° |
| 2026-04-24 23:33 | 43.63826 | -157.76070 | 31363 ft | 547 kts | 104° |
| 2026-04-24 23:33 | 43.62060 | -157.65854 | 31364 ft | 546 kts | 104° |
| 2026-04-24 23:34 | 43.60287 | -157.55648 | 31357 ft | 546 kts | 105° |
| 2026-04-24 23:34 | 43.58515 | -157.45510 | 31369 ft | 546 kts | 105° |
| 2026-04-24 23:35 | 43.56729 | -157.35347 | 31364 ft | 546 kts | 105° |
| 2026-04-24 23:35 | 43.54925 | -157.25145 | 31362 ft | 546 kts | 105° |
| 2026-04-24 23:36 | 43.53125 | -157.15019 | 31370 ft | 546 kts | 105° |
| 2026-04-24 23:36 | 43.51306 | -157.04843 | 31361 ft | 546 kts | 105° |
| 2026-04-24 23:37 | 43.49480 | -156.94685 | 31361 ft | 546 kts | 105° |
| 2026-04-24 23:37 | 43.46734 | -156.79512 | 31359 ft | 545 kts | 105° |
| 2026-04-24 23:38 | 43.44886 | -156.69365 | 31361 ft | 545 kts | 105° |
| 2026-04-24 23:38 | 43.43028 | -156.59228 | 31358 ft | 545 kts | 105° |
| 2026-04-24 23:39 | 43.41176 | -156.49174 | 31356 ft | 545 kts | 106° |
| 2026-04-24 23:39 | 43.39302 | -156.39055 | 31359 ft | 545 kts | 106° |
| 2026-04-24 23:40 | 43.37430 | -156.29004 | 31355 ft | 544 kts | 106° |
| 2026-04-24 23:40 | 43.35539 | -156.18903 | 31345 ft | 544 kts | 106° |
| 2026-04-24 23:41 | 43.33655 | -156.08891 | 31353 ft | 544 kts | 106° |
| 2026-04-24 23:41 | 43.31753 | -155.98834 | 31353 ft | 543 kts | 106° |
| 2026-04-24 23:42 | 43.29852 | -155.88838 | 31347 ft | 543 kts | 106° |
| 2026-04-24 23:42 | 43.27931 | -155.78793 | 31348 ft | 543 kts | 106° |
| 2026-04-24 23:43 | 43.26002 | -155.68749 | 31347 ft | 543 kts | 106° |
| 2026-04-24 23:43 | 43.24075 | -155.58775 | 31348 ft | 543 kts | 107° |
| 2026-04-24 23:44 | 43.22127 | -155.48742 | 31341 ft | 543 kts | 107° |
| 2026-04-24 23:44 | 43.20183 | -155.38779 | 31343 ft | 543 kts | 107° |
| 2026-04-24 23:45 | 43.18220 | -155.28770 | 31334 ft | 543 kts | 107° |
| 2026-04-24 23:45 | 43.16246 | -155.18759 | 31322 ft | 543 kts | 107° |
| 2026-04-24 23:46 | 43.14281 | -155.08842 | 31335 ft | 542 kts | 107° |
| 2026-04-24 23:46 | 43.12297 | -154.98877 | 31332 ft | 542 kts | 107° |
| 2026-04-24 23:47 | 43.10302 | -154.88910 | 31317 ft | 542 kts | 107° |
| 2026-04-24 23:47 | 43.08310 | -154.79003 | 31327 ft | 542 kts | 107° |
| 2026-04-24 23:48 | 43.06296 | -154.69042 | 31328 ft | 542 kts | 107° |
| 2026-04-24 23:48 | 43.04276 | -154.59096 | 31320 ft | 542 kts | 107° |
| 2026-04-24 23:49 | 43.02246 | -154.49153 | 31311 ft | 542 kts | 107° |
| 2026-04-24 23:49 | 43.00221 | -154.39278 | 31319 ft | 542 kts | 107° |
| 2026-04-24 23:50 | 42.98175 | -154.29349 | 31316 ft | 542 kts | 107° |
| 2026-04-24 23:50 | 42.96120 | -154.19430 | 31302 ft | 542 kts | 107° |
| 2026-04-24 23:51 | 42.94058 | -154.09518 | 31328 ft | 542 kts | 107° |
| 2026-04-24 23:51 | 42.91998 | -153.99667 | 31315 ft | 543 kts | 107° |
| 2026-04-24 23:52 | 42.89914 | -153.89752 | 31307 ft | 543 kts | 107° |
| 2026-04-24 23:52 | 42.87819 | -153.79829 | 31305 ft | 543 kts | 107° |
| 2026-04-24 23:53 | 42.85733 | -153.69993 | 31302 ft | 543 kts | 107° |
| 2026-04-24 23:53 | 42.83626 | -153.60108 | 31302 ft | 543 kts | 107° |
| 2026-04-24 23:54 | 42.81509 | -153.50223 | 31286 ft | 542 kts | 107° |
| 2026-04-24 23:54 | 42.79383 | -153.40340 | 31289 ft | 542 kts | 107° |
| 2026-04-24 23:55 | 42.77264 | -153.30536 | 31292 ft | 542 kts | 107° |
| 2026-04-24 23:55 | 42.75129 | -153.20705 | 31284 ft | 541 kts | 107° |
| 2026-04-24 23:56 | 42.72997 | -153.10933 | 31286 ft | 541 kts | 107° |
| 2026-04-24 23:56 | 42.70845 | -153.01112 | 31279 ft | 541 kts | 107° |
| 2026-04-24 23:57 | 42.68695 | -152.91348 | 31263 ft | 540 kts | 107° |
| 2026-04-24 23:57 | 42.66527 | -152.81546 | 31279 ft | 540 kts | 107° |
| 2026-04-24 23:58 | 42.64723 | -152.73420 | 31277 ft | 539 kts | 107° |
| 2026-04-24 23:58 | 42.62189 | -152.62060 | 31272 ft | 539 kts | 107° |
| 2026-04-24 23:59 | 42.60370 | -152.53944 | 31266 ft | 539 kts | 107° |
| 2026-04-24 23:59 | 42.57821 | -152.42623 | 31266 ft | 538 kts | 107° |
| 2026-04-25 00:00 | 42.55992 | -152.34532 | 31266 ft | 538 kts | 107° |
| 2026-04-25 00:00 | 42.53789 | -152.24826 | 31261 ft | 538 kts | 107° |
| 2026-04-25 00:01 | 42.51572 | -152.15104 | 31262 ft | 538 kts | 108° |
| 2026-04-25 00:01 | 42.49368 | -152.05479 | 31260 ft | 538 kts | 108° |
| 2026-04-25 00:02 | 42.47138 | -151.95786 | 31260 ft | 538 kts | 108° |
| 2026-04-25 00:02 | 42.44914 | -151.86160 | 31259 ft | 538 kts | 108° |
| 2026-04-25 00:03 | 42.42667 | -151.76475 | 31268 ft | 538 kts | 108° |
| 2026-04-25 00:03 | 42.40427 | -151.66863 | 31265 ft | 538 kts | 108° |
| 2026-04-25 00:04 | 42.38164 | -151.57194 | 31261 ft | 538 kts | 108° |
| 2026-04-25 00:04 | 42.35907 | -151.47592 | 31270 ft | 538 kts | 108° |
| 2026-04-25 00:05 | 42.33625 | -151.37925 | 31276 ft | 538 kts | 108° |
| 2026-04-25 00:05 | 42.31340 | -151.28287 | 31275 ft | 538 kts | 108° |
| 2026-04-25 00:06 | 42.29057 | -151.18698 | 31283 ft | 538 kts | 108° |
| 2026-04-25 00:06 | 42.26753 | -151.09058 | 31284 ft | 537 kts | 108° |
| 2026-04-25 00:07 | 42.24458 | -150.99500 | 31279 ft | 537 kts | 108° |
| 2026-04-25 00:07 | 42.22144 | -150.89904 | 31283 ft | 537 kts | 108° |
| 2026-04-25 00:08 | 42.19838 | -150.80379 | 31289 ft | 537 kts | 108° |
| 2026-04-25 00:08 | 42.17510 | -150.70801 | 31291 ft | 537 kts | 108° |
| 2026-04-25 00:09 | 42.15184 | -150.61274 | 31300 ft | 537 kts | 108° |
| 2026-04-25 00:09 | 42.12835 | -150.51692 | 31304 ft | 537 kts | 108° |
| 2026-04-25 00:10 | 42.10499 | -150.42201 | 31305 ft | 537 kts | 108° |
| 2026-04-25 00:10 | 42.08137 | -150.32644 | 31306 ft | 537 kts | 108° |
| 2026-04-25 00:11 | 42.05768 | -150.23093 | 31316 ft | 537 kts | 108° |
| 2026-04-25 00:11 | 42.03390 | -150.13547 | 31318 ft | 537 kts | 108° |
| 2026-04-25 00:12 | 42.01020 | -150.04068 | 31307 ft | 537 kts | 108° |
| 2026-04-25 00:12 | 41.99034 | -149.94403 | 31320 ft | 535 kts | 100° |
| 2026-04-25 00:13 | 41.97579 | -149.84562 | 31331 ft | 536 kts | 99° |
| 2026-04-25 00:13 | 41.96135 | -149.74794 | 31327 ft | 536 kts | 100° |
| 2026-04-25 00:14 | 41.94633 | -149.64938 | 31331 ft | 537 kts | 100° |
| 2026-04-25 00:14 | 41.93111 | -149.55145 | 31339 ft | 538 kts | 100° |
| 2026-04-25 00:15 | 41.91569 | -149.45299 | 31339 ft | 538 kts | 100° |
| 2026-04-25 00:15 | 41.90027 | -149.35490 | 31335 ft | 538 kts | 100° |
| 2026-04-25 00:16 | 41.88474 | -149.25667 | 31341 ft | 538 kts | 100° |
| 2026-04-25 00:16 | 41.86912 | -149.15834 | 31341 ft | 538 kts | 100° |
| 2026-04-25 00:17 | 41.85340 | -149.06004 | 31344 ft | 538 kts | 100° |
| 2026-04-25 00:17 | 41.83769 | -148.96233 | 31340 ft | 537 kts | 100° |
| 2026-04-25 00:18 | 41.82182 | -148.86420 | 31347 ft | 537 kts | 100° |
| 2026-04-25 00:18 | 41.80598 | -148.76683 | 31350 ft | 537 kts | 100° |
| 2026-04-25 00:19 | 41.79000 | -148.66911 | 31358 ft | 537 kts | 100° |
| 2026-04-25 00:19 | 41.77389 | -148.57119 | 31355 ft | 537 kts | 100° |
| 2026-04-25 00:20 | 41.75773 | -148.47352 | 31357 ft | 537 kts | 100° |
| 2026-04-25 00:20 | 41.74156 | -148.37632 | 31352 ft | 536 kts | 100° |
| 2026-04-25 00:21 | 41.72525 | -148.27887 | 31356 ft | 536 kts | 100° |
| 2026-04-25 00:21 | 41.70897 | -148.18209 | 31356 ft | 535 kts | 100° |
| 2026-04-25 00:22 | 41.69250 | -148.08472 | 31367 ft | 535 kts | 100° |
| 2026-04-25 00:22 | 41.67601 | -147.98777 | 31364 ft | 532 kts | 100° |
| 2026-04-25 00:23 | 41.65964 | -147.89207 | 31361 ft | 529 kts | 100° |
| 2026-04-25 00:23 | 41.64311 | -147.79593 | 31365 ft | 527 kts | 100° |
| 2026-04-25 00:24 | 41.62673 | -147.70109 | 31376 ft | 526 kts | 101° |
| 2026-04-25 00:24 | 41.61019 | -147.60589 | 31367 ft | 525 kts | 101° |
| 2026-04-25 00:25 | 41.59355 | -147.51066 | 31370 ft | 525 kts | 101° |
| 2026-04-25 00:25 | 41.57692 | -147.41592 | 31370 ft | 526 kts | 101° |
| 2026-04-25 00:26 | 41.56011 | -147.32066 | 31373 ft | 527 kts | 101° |
| 2026-04-25 00:26 | 41.54327 | -147.22575 | 31374 ft | 527 kts | 101° |
| 2026-04-25 00:27 | 41.52626 | -147.13033 | 31377 ft | 528 kts | 101° |
| 2026-04-25 00:27 | 41.50914 | -147.03486 | 31381 ft | 527 kts | 101° |
| 2026-04-25 00:28 | 41.49209 | -146.94025 | 31378 ft | 526 kts | 101° |
| 2026-04-25 00:28 | 41.47498 | -146.84576 | 31380 ft | 525 kts | 101° |
| 2026-04-25 00:29 | 41.45776 | -146.75113 | 31387 ft | 524 kts | 101° |
| 2026-04-25 00:29 | 41.44070 | -146.65785 | 31381 ft | 509 kts | 102° |
| 2026-04-25 00:30 | 41.42397 | -146.56689 | 31388 ft | 508 kts | 102° |
| 2026-04-25 00:30 | 41.40702 | -146.47507 | 31392 ft | 510 kts | 102° |
| 2026-04-25 00:31 | 41.38996 | -146.38306 | 31397 ft | 511 kts | 103° |
| 2026-04-25 00:31 | 41.37292 | -146.29172 | 31386 ft | 510 kts | 103° |
| 2026-04-25 00:32 | 41.35586 | -146.20067 | 31387 ft | 508 kts | 103° |
| 2026-04-25 00:32 | 41.33868 | -146.10939 | 31387 ft | 506 kts | 103° |
| 2026-04-25 00:33 | 41.32153 | -146.01873 | 31392 ft | 503 kts | 103° |
| 2026-04-25 00:33 | 41.30448 | -145.92899 | 31392 ft | 501 kts | 103° |
| 2026-04-25 00:34 | 41.28732 | -145.83910 | 31394 ft | 500 kts | 103° |
| 2026-04-25 00:34 | 41.27012 | -145.74938 | 31402 ft | 500 kts | 104° |
| 2026-04-25 00:35 | 41.25296 | -145.66030 | 31397 ft | 500 kts | 104° |
| 2026-04-25 00:35 | 41.23560 | -145.57062 | 31400 ft | 500 kts | 104° |
| 2026-04-25 00:36 | 41.21820 | -145.48110 | 31398 ft | 500 kts | 104° |
| 2026-04-25 00:36 | 41.20086 | -145.39232 | 31406 ft | 499 kts | 104° |
| 2026-04-25 00:37 | 41.18340 | -145.30329 | 31410 ft | 496 kts | 104° |
| 2026-04-25 00:37 | 41.16600 | -145.21498 | 31397 ft | 492 kts | 105° |
| 2026-04-25 00:38 | 41.14871 | -145.12767 | 31398 ft | 489 kts | 105° |
| 2026-04-25 00:38 | 41.13139 | -145.04052 | 31408 ft | 487 kts | 105° |
| 2026-04-25 00:39 | 41.11413 | -144.95404 | 31412 ft | 487 kts | 105° |
| 2026-04-25 00:39 | 41.09667 | -144.86691 | 31416 ft | 488 kts | 105° |
| 2026-04-25 00:40 | 41.07909 | -144.77958 | 31413 ft | 490 kts | 105° |
| 2026-04-25 00:40 | 41.06155 | -144.69286 | 31416 ft | 491 kts | 105° |
| 2026-04-25 00:41 | 41.04375 | -144.60519 | 31415 ft | 491 kts | 105° |
| 2026-04-25 00:41 | 41.02592 | -144.51775 | 31417 ft | 491 kts | 105° |
| 2026-04-25 00:42 | 41.00820 | -144.43117 | 31414 ft | 489 kts | 105° |
| 2026-04-25 00:42 | 40.99033 | -144.34431 | 31416 ft | 487 kts | 105° |
| 2026-04-25 00:43 | 40.97256 | -144.25822 | 31412 ft | 486 kts | 105° |
| 2026-04-25 00:43 | 40.95464 | -144.17179 | 31416 ft | 486 kts | 105° |
| 2026-04-25 00:44 | 40.93666 | -144.08543 | 31416 ft | 486 kts | 105° |
| 2026-04-25 00:44 | 40.91874 | -143.99971 | 31413 ft | 487 kts | 105° |
| 2026-04-25 00:45 | 40.90060 | -143.91329 | 31419 ft | 486 kts | 106° |
| 2026-04-25 00:45 | 40.88253 | -143.82760 | 31416 ft | 485 kts | 106° |
| 2026-04-25 00:46 | 40.86434 | -143.74164 | 31412 ft | 484 kts | 106° |
| 2026-04-25 00:47 | 40.83711 | -143.61364 | 31415 ft | 483 kts | 106° |
| 2026-04-25 00:47 | 40.81880 | -143.52800 | 31412 ft | 483 kts | 105° |
| 2026-04-25 00:48 | 40.80053 | -143.44285 | 31417 ft | 484 kts | 105° |
| 2026-04-25 00:48 | 40.78515 | -143.37143 | 31421 ft | 485 kts | 106° |
| 2026-04-25 00:49 | 40.76665 | -143.28587 | 31414 ft | 486 kts | 106° |
| 2026-04-25 00:49 | 40.74797 | -143.19982 | 31415 ft | 487 kts | 105° |
| 2026-04-25 00:50 | 40.72921 | -143.11372 | 31415 ft | 488 kts | 105° |
| 2026-04-25 00:50 | 40.71047 | -143.02806 | 31415 ft | 488 kts | 105° |
| 2026-04-25 00:51 | 40.69155 | -142.94194 | 31414 ft | 488 kts | 105° |
| 2026-04-25 00:51 | 40.67271 | -142.85650 | 31415 ft | 488 kts | 105° |
| 2026-04-25 00:52 | 40.65369 | -142.77060 | 31416 ft | 487 kts | 105° |
| 2026-04-25 00:52 | 40.63471 | -142.68517 | 31418 ft | 487 kts | 105° |
| 2026-04-25 00:53 | 40.61554 | -142.59927 | 31416 ft | 487 kts | 105° |
| 2026-04-25 00:53 | 40.59650 | -142.51428 | 31416 ft | 487 kts | 105° |
| 2026-04-25 00:54 | 40.57724 | -142.42861 | 31417 ft | 487 kts | 105° |
| 2026-04-25 00:54 | 40.55793 | -142.34305 | 31418 ft | 487 kts | 105° |
| 2026-04-25 00:55 | 40.53864 | -142.25794 | 31413 ft | 488 kts | 105° |
| 2026-04-25 00:55 | 40.51915 | -142.17221 | 31413 ft | 487 kts | 105° |
| 2026-04-25 00:56 | 40.49976 | -142.08732 | 31412 ft | 487 kts | 105° |
| 2026-04-25 00:56 | 40.48016 | -142.00180 | 31410 ft | 488 kts | 105° |
| 2026-04-25 00:57 | 40.46063 | -141.91690 | 31415 ft | 488 kts | 105° |
| 2026-04-25 00:57 | 40.44091 | -141.83146 | 31413 ft | 488 kts | 105° |
| 2026-04-25 00:58 | 40.42109 | -141.74598 | 31415 ft | 489 kts | 105° |
| 2026-04-25 00:58 | 40.40121 | -141.66054 | 31406 ft | 490 kts | 105° |
| 2026-04-25 00:59 | 40.38135 | -141.57548 | 31407 ft | 490 kts | 105° |
| 2026-04-25 00:59 | 40.36125 | -141.48971 | 31404 ft | 491 kts | 105° |
| 2026-04-25 01:00 | 40.34118 | -141.40445 | 31401 ft | 492 kts | 105° |
| 2026-04-25 01:00 | 40.32087 | -141.31841 | 31410 ft | 493 kts | 105° |
| 2026-04-25 01:01 | 40.30059 | -141.23287 | 31406 ft | 494 kts | 105° |
| 2026-04-25 01:01 | 40.28011 | -141.14678 | 31402 ft | 495 kts | 105° |
| 2026-04-25 01:02 | 40.25949 | -141.06045 | 31399 ft | 495 kts | 105° |
| 2026-04-25 01:02 | 40.23898 | -140.97488 | 31398 ft | 494 kts | 105° |
| 2026-04-25 01:03 | 40.21831 | -140.88895 | 31398 ft | 493 kts | 105° |
| 2026-04-25 01:03 | 40.19773 | -140.80374 | 31395 ft | 493 kts | 105° |
| 2026-04-25 01:04 | 40.17696 | -140.71802 | 31392 ft | 494 kts | 105° |
| 2026-04-25 01:04 | 40.15611 | -140.63230 | 31392 ft | 494 kts | 105° |
| 2026-04-25 01:05 | 40.13530 | -140.54705 | 31396 ft | 495 kts | 105° |
| 2026-04-25 01:05 | 40.11423 | -140.46106 | 31389 ft | 496 kts | 104° |
| 2026-04-25 01:06 | 40.09320 | -140.37551 | 31390 ft | 496 kts | 105° |
| 2026-04-25 01:06 | 40.07205 | -140.28978 | 31388 ft | 497 kts | 105° |
| 2026-04-25 01:07 | 40.05078 | -140.20391 | 31387 ft | 497 kts | 104° |
| 2026-04-25 01:07 | 40.02941 | -140.11787 | 31376 ft | 498 kts | 104° |
| 2026-04-25 01:08 | 40.00812 | -140.03251 | 31393 ft | 497 kts | 104° |
| 2026-04-25 01:08 | 39.99075 | -139.94574 | 31396 ft | 491 kts | 96° |
| 2026-04-25 01:09 | 39.97770 | -139.85802 | 31371 ft | 490 kts | 96° |
| 2026-04-25 01:09 | 39.96477 | -139.77144 | 31373 ft | 489 kts | 96° |
| 2026-04-25 01:10 | 39.95147 | -139.68459 | 31373 ft | 488 kts | 97° |
| 2026-04-25 01:10 | 39.93796 | -139.59776 | 31382 ft | 488 kts | 96° |
| 2026-04-25 01:11 | 39.92437 | -139.51098 | 31371 ft | 488 kts | 96° |
| 2026-04-25 01:11 | 39.91079 | -139.42465 | 31367 ft | 488 kts | 96° |
| 2026-04-25 01:12 | 39.89707 | -139.33784 | 31367 ft | 489 kts | 96° |
| 2026-04-25 01:12 | 39.88336 | -139.25155 | 31388 ft | 489 kts | 96° |
| 2026-04-25 01:13 | 39.86949 | -139.16469 | 31354 ft | 488 kts | 96° |
| 2026-04-25 01:13 | 39.85561 | -139.07822 | 31354 ft | 486 kts | 96° |
| 2026-04-25 01:14 | 39.84180 | -138.99264 | 31357 ft | 485 kts | 96° |
| 2026-04-25 01:14 | 39.82790 | -138.90682 | 31363 ft | 484 kts | 96° |
| 2026-04-25 01:15 | 39.81394 | -138.82109 | 31350 ft | 484 kts | 96° |
| 2026-04-25 01:15 | 39.80001 | -138.73598 | 31353 ft | 483 kts | 96° |
| 2026-04-25 01:16 | 39.78595 | -138.65046 | 31359 ft | 483 kts | 96° |
| 2026-04-25 01:16 | 39.77183 | -138.56497 | 31348 ft | 483 kts | 97° |
| 2026-04-25 01:17 | 39.75766 | -138.47965 | 31350 ft | 482 kts | 97° |
| 2026-04-25 01:17 | 39.74349 | -138.39474 | 31340 ft | 480 kts | 98° |
| 2026-04-25 01:18 | 39.72938 | -138.31063 | 31345 ft | 477 kts | 98° |
| 2026-04-25 01:18 | 39.71523 | -138.22661 | 31334 ft | 475 kts | 99° |
| 2026-04-25 01:19 | 39.70113 | -138.14337 | 31330 ft | 472 kts | 99° |
| 2026-04-25 01:19 | 39.68696 | -138.06009 | 31329 ft | 471 kts | 99° |
| 2026-04-25 01:20 | 39.67286 | -137.97746 | 31339 ft | 471 kts | 99° |
| 2026-04-25 01:20 | 39.65858 | -137.89418 | 31332 ft | 472 kts | 99° |
| 2026-04-25 01:21 | 39.64420 | -137.81073 | 31329 ft | 474 kts | 99° |
| 2026-04-25 01:21 | 39.62981 | -137.72765 | 31330 ft | 475 kts | 99° |
| 2026-04-25 01:22 | 39.61523 | -137.64383 | 31332 ft | 474 kts | 100° |
| 2026-04-25 01:22 | 39.60073 | -137.56094 | 31318 ft | 472 kts | 100° |
| 2026-04-25 01:23 | 39.58618 | -137.47809 | 31314 ft | 469 kts | 100° |
| 2026-04-25 01:23 | 39.57170 | -137.39598 | 31309 ft | 468 kts | 100° |
| 2026-04-25 01:24 | 39.55715 | -137.31377 | 31319 ft | 467 kts | 101° |
| 2026-04-25 01:24 | 39.54252 | -137.23151 | 31313 ft | 467 kts | 101° |
| 2026-04-25 01:25 | 39.52790 | -137.14965 | 31312 ft | 468 kts | 101° |
| 2026-04-25 01:25 | 39.51320 | -137.06771 | 31310 ft | 469 kts | 101° |
| 2026-04-25 01:26 | 39.49831 | -136.98511 | 31310 ft | 469 kts | 101° |
| 2026-04-25 01:26 | 39.48351 | -136.90330 | 31311 ft | 469 kts | 102° |
| 2026-04-25 01:27 | 39.46852 | -136.82087 | 31296 ft | 468 kts | 101° |
| 2026-04-25 01:27 | 39.45353 | -136.73874 | 31300 ft | 467 kts | 101° |
| 2026-04-25 01:28 | 39.43109 | -136.61648 | 31291 ft | 467 kts | 101° |
| 2026-04-25 01:28 | 39.41599 | -136.53462 | 31297 ft | 467 kts | 102° |
| 2026-04-25 01:29 | 39.40094 | -136.45339 | 31287 ft | 467 kts | 101° |
| 2026-04-25 01:29 | 39.38572 | -136.37161 | 31297 ft | 467 kts | 102° |
| 2026-04-25 01:30 | 39.37046 | -136.28991 | 31288 ft | 467 kts | 102° |
| 2026-04-25 01:30 | 39.35520 | -136.20861 | 31284 ft | 467 kts | 102° |
| 2026-04-25 01:31 | 39.33981 | -136.12686 | 31286 ft | 466 kts | 102° |
| 2026-04-25 01:31 | 39.32441 | -136.04551 | 31281 ft | 465 kts | 102° |
| 2026-04-25 01:32 | 39.30909 | -135.96484 | 31272 ft | 464 kts | 103° |
| 2026-04-25 01:32 | 39.29366 | -135.88393 | 31270 ft | 463 kts | 103° |
| 2026-04-25 01:33 | 39.27822 | -135.80331 | 31268 ft | 462 kts | 103° |
| 2026-04-25 01:33 | 39.26284 | -135.72333 | 31273 ft | 461 kts | 103° |
| 2026-04-25 01:34 | 39.24732 | -135.64296 | 31267 ft | 461 kts | 103° |
| 2026-04-25 01:34 | 39.23177 | -135.56272 | 31263 ft | 461 kts | 103° |
| 2026-04-25 01:35 | 39.21614 | -135.48238 | 31260 ft | 461 kts | 103° |
| 2026-04-25 01:35 | 39.20056 | -135.40263 | 31265 ft | 460 kts | 103° |
| 2026-04-25 01:36 | 39.18485 | -135.32249 | 31257 ft | 460 kts | 103° |
| 2026-04-25 01:36 | 39.16912 | -135.24266 | 31240 ft | 458 kts | 103° |
| 2026-04-25 01:37 | 39.15348 | -135.16354 | 31251 ft | 457 kts | 104° |
| 2026-04-25 01:37 | 39.13773 | -135.08413 | 31232 ft | 457 kts | 104° |
| 2026-04-25 01:38 | 39.12455 | -135.01796 | 31253 ft | 458 kts | 104° |
| 2026-04-25 01:38 | 39.10606 | -134.92544 | 31237 ft | 459 kts | 104° |
| 2026-04-25 01:39 | 39.09003 | -134.84562 | 31249 ft | 460 kts | 104° |
| 2026-04-25 01:39 | 39.07665 | -134.77921 | 31234 ft | 460 kts | 104° |
| 2026-04-25 01:40 | 39.05791 | -134.68652 | 31232 ft | 460 kts | 104° |
| 2026-04-25 01:40 | 39.04175 | -134.60696 | 31235 ft | 459 kts | 104° |
| 2026-04-25 01:41 | 39.02828 | -134.54085 | 31218 ft | 459 kts | 104° |
| 2026-04-25 01:41 | 39.01203 | -134.46136 | 31217 ft | 458 kts | 104° |
| 2026-04-25 01:42 | 38.99584 | -134.38247 | 31228 ft | 459 kts | 104° |
| 2026-04-25 01:42 | 38.97951 | -134.30320 | 31230 ft | 459 kts | 104° |
| 2026-04-25 01:43 | 38.96305 | -134.22362 | 31228 ft | 460 kts | 104° |
| 2026-04-25 01:43 | 38.94664 | -134.14452 | 31217 ft | 460 kts | 104° |
| 2026-04-25 01:44 | 38.93002 | -134.06472 | 31216 ft | 461 kts | 104° |
| 2026-04-25 01:44 | 38.91346 | -133.98554 | 31212 ft | 462 kts | 105° |
| 2026-04-25 01:45 | 38.89672 | -133.90577 | 31224 ft | 462 kts | 105° |
| 2026-04-25 01:45 | 38.87992 | -133.82604 | 31211 ft | 463 kts | 105° |
| 2026-04-25 01:46 | 38.86311 | -133.74653 | 31205 ft | 463 kts | 105° |
| 2026-04-25 01:46 | 38.84613 | -133.66650 | 31214 ft | 464 kts | 105° |
| 2026-04-25 01:47 | 38.82919 | -133.58700 | 31213 ft | 464 kts | 105° |
| 2026-04-25 01:47 | 38.81210 | -133.50706 | 31209 ft | 464 kts | 105° |
| 2026-04-25 01:48 | 38.79493 | -133.42703 | 31192 ft | 465 kts | 105° |
| 2026-04-25 01:48 | 38.77771 | -133.34708 | 31190 ft | 465 kts | 105° |
| 2026-04-25 01:49 | 38.76052 | -133.26755 | 31187 ft | 465 kts | 105° |
| 2026-04-25 01:49 | 38.74316 | -133.18752 | 31183 ft | 465 kts | 105° |
| 2026-04-25 01:50 | 38.72586 | -133.10806 | 31198 ft | 465 kts | 105° |
| 2026-04-25 01:50 | 38.70840 | -133.02812 | 31198 ft | 465 kts | 105° |
| 2026-04-25 01:51 | 38.69090 | -132.94832 | 31179 ft | 465 kts | 105° |
| 2026-04-25 01:51 | 38.67343 | -132.86895 | 31191 ft | 466 kts | 105° |
| 2026-04-25 01:52 | 38.65579 | -132.78905 | 31191 ft | 466 kts | 105° |
| 2026-04-25 01:52 | 38.63809 | -132.70920 | 31176 ft | 466 kts | 105° |
| 2026-04-25 01:53 | 38.62044 | -132.62981 | 31171 ft | 466 kts | 106° |
| 2026-04-25 01:53 | 38.60262 | -132.55000 | 31176 ft | 466 kts | 106° |
| 2026-04-25 01:54 | 38.58478 | -132.47035 | 31168 ft | 466 kts | 106° |
| 2026-04-25 01:54 | 38.56698 | -132.39118 | 31185 ft | 465 kts | 106° |
| 2026-04-25 01:55 | 38.54902 | -132.31153 | 31186 ft | 465 kts | 106° |
| 2026-04-25 01:55 | 38.53097 | -132.23183 | 31182 ft | 466 kts | 106° |
| 2026-04-25 01:56 | 38.51297 | -132.15257 | 31184 ft | 466 kts | 106° |
| 2026-04-25 01:56 | 38.49480 | -132.07288 | 31184 ft | 466 kts | 106° |
| 2026-04-25 01:57 | 38.46755 | -131.95384 | 31177 ft | 466 kts | 106° |
| 2026-04-25 01:58 | 38.44938 | -131.87480 | 31159 ft | 466 kts | 106° |
| 2026-04-25 01:58 | 38.43102 | -131.79521 | 31173 ft | 467 kts | 106° |
| 2026-04-25 01:59 | 38.41272 | -131.71619 | 31173 ft | 467 kts | 106° |
| 2026-04-25 01:59 | 38.39424 | -131.63663 | 31171 ft | 467 kts | 107° |
| 2026-04-25 02:00 | 38.37571 | -131.55711 | 31169 ft | 467 kts | 107° |
| 2026-04-25 02:00 | 38.35723 | -131.47811 | 31164 ft | 467 kts | 107° |
| 2026-04-25 02:01 | 38.33858 | -131.39864 | 31165 ft | 467 kts | 107° |
| 2026-04-25 02:01 | 38.31997 | -131.31962 | 31166 ft | 468 kts | 107° |
| 2026-04-25 02:02 | 38.30121 | -131.24020 | 31162 ft | 467 kts | 107° |
| 2026-04-25 02:02 | 38.28239 | -131.16080 | 31162 ft | 467 kts | 107° |
| 2026-04-25 02:03 | 38.26354 | -131.08153 | 31153 ft | 468 kts | 107° |
| 2026-04-25 02:03 | 38.24469 | -131.00257 | 31164 ft | 468 kts | 107° |
| 2026-04-25 02:04 | 38.22578 | -130.92360 | 31154 ft | 469 kts | 107° |
| 2026-04-25 02:04 | 38.20667 | -130.84406 | 31156 ft | 470 kts | 107° |
| 2026-04-25 02:05 | 38.18749 | -130.76447 | 31155 ft | 470 kts | 107° |
| 2026-04-25 02:05 | 38.16835 | -130.68532 | 31151 ft | 470 kts | 108° |
| 2026-04-25 02:06 | 38.14904 | -130.60573 | 31154 ft | 470 kts | 108° |
| 2026-04-25 02:06 | 38.12968 | -130.52621 | 31154 ft | 470 kts | 108° |
| 2026-04-25 02:07 | 38.11029 | -130.44683 | 31151 ft | 470 kts | 108° |
| 2026-04-25 02:07 | 38.09084 | -130.36743 | 31148 ft | 471 kts | 108° |
| 2026-04-25 02:08 | 38.07143 | -130.28849 | 31143 ft | 471 kts | 108° |
| 2026-04-25 02:08 | 38.05185 | -130.20908 | 31142 ft | 471 kts | 108° |
| 2026-04-25 02:09 | 38.03216 | -130.12949 | 31142 ft | 472 kts | 108° |
| 2026-04-25 02:09 | 38.01253 | -130.05036 | 31144 ft | 472 kts | 109° |
| 2026-04-25 02:10 | 37.99465 | -129.97001 | 31135 ft | 473 kts | 102° |
| 2026-04-25 02:10 | 37.98241 | -129.88790 | 31138 ft | 474 kts | 102° |
| 2026-04-25 02:11 | 37.97037 | -129.80621 | 31137 ft | 474 kts | 102° |
| 2026-04-25 02:11 | 37.95795 | -129.72395 | 31137 ft | 474 kts | 102° |
| 2026-04-25 02:12 | 37.94534 | -129.64181 | 31122 ft | 474 kts | 102° |
| 2026-04-25 02:12 | 37.93272 | -129.56028 | 31132 ft | 474 kts | 102° |
| 2026-04-25 02:13 | 37.91996 | -129.47819 | 31129 ft | 474 kts | 102° |
| 2026-04-25 02:13 | 37.90715 | -129.39614 | 31130 ft | 474 kts | 102° |
| 2026-04-25 02:14 | 37.89423 | -129.31375 | 31143 ft | 484 kts | 103° |
| 2026-04-25 02:14 | 37.88766 | -129.27212 | 31271 ft | 493 kts | 103° |
| 2026-04-25 02:14 | 37.88090 | -129.22934 | 31540 ft | 497 kts | 103° |
| 2026-04-25 02:14 | 37.87410 | -129.18630 | 31923 ft | 498 kts | 103° |
| 2026-04-25 02:15 | 37.86726 | -129.14312 | 32390 ft | 498 kts | 103° |
| 2026-04-25 02:15 | 37.86043 | -129.10007 | 32885 ft | 496 kts | 103° |
| 2026-04-25 02:15 | 37.85370 | -129.05779 | 33359 ft | 495 kts | 103° |
| 2026-04-25 02:15 | 37.84686 | -129.01494 | 33796 ft | 495 kts | 103° |
| 2026-04-25 02:16 | 37.83999 | -128.97201 | 34051 ft | 499 kts | 104° |
| 2026-04-25 02:16 | 37.83301 | -128.92863 | 34217 ft | 503 kts | 104° |
| 2026-04-25 02:16 | 37.82610 | -128.88575 | 34561 ft | 503 kts | 104° |
| 2026-04-25 02:16 | 37.81911 | -128.84238 | 35008 ft | 500 kts | 104° |
| 2026-04-25 02:17 | 37.81218 | -128.79943 | 35401 ft | 498 kts | 104° |
| 2026-04-25 02:17 | 37.80520 | -128.75634 | 35731 ft | 498 kts | 104° |
| 2026-04-25 02:17 | 37.79823 | -128.71342 | 36037 ft | 499 kts | 104° |
| 2026-04-25 02:17 | 37.79121 | -128.67036 | 36351 ft | 498 kts | 104° |
| 2026-04-25 02:18 | 37.78430 | -128.62804 | 36675 ft | 498 kts | 104° |
| 2026-04-25 02:18 | 37.77725 | -128.58500 | 36986 ft | 497 kts | 104° |
| 2026-04-25 02:18 | 37.77020 | -128.54201 | 37059 ft | 500 kts | 104° |
| 2026-04-25 02:19 | 37.75609 | -128.45631 | 37103 ft | 499 kts | 104° |
| 2026-04-25 02:19 | 37.74192 | -128.37062 | 37101 ft | 496 kts | 104° |
| 2026-04-25 02:20 | 37.72773 | -128.28522 | 37096 ft | 494 kts | 104° |
| 2026-04-25 02:20 | 37.71361 | -128.20070 | 37111 ft | 495 kts | 104° |
| 2026-04-25 02:21 | 37.69929 | -128.11540 | 37111 ft | 497 kts | 104° |
| 2026-04-25 02:21 | 37.68494 | -128.03028 | 37108 ft | 499 kts | 104° |
| 2026-04-25 02:22 | 37.67038 | -127.94429 | 37086 ft | 501 kts | 105° |
| 2026-04-25 02:22 | 37.65569 | -127.85798 | 37105 ft | 504 kts | 105° |
| 2026-04-25 02:23 | 37.64097 | -127.77185 | 37097 ft | 506 kts | 105° |
| 2026-04-25 02:23 | 37.62602 | -127.68483 | 37089 ft | 507 kts | 105° |
| 2026-04-25 02:24 | 37.61100 | -127.59776 | 37081 ft | 508 kts | 105° |
| 2026-04-25 02:24 | 37.59596 | -127.51098 | 37088 ft | 509 kts | 105° |
| 2026-04-25 02:25 | 37.58075 | -127.42359 | 37087 ft | 509 kts | 105° |
| 2026-04-25 02:25 | 37.56545 | -127.33617 | 37086 ft | 509 kts | 105° |
| 2026-04-25 02:26 | 37.55021 | -127.24944 | 37069 ft | 509 kts | 105° |
| 2026-04-25 02:26 | 37.53481 | -127.16217 | 37084 ft | 509 kts | 105° |
| 2026-04-25 02:27 | 37.51944 | -127.07544 | 37082 ft | 510 kts | 105° |
| 2026-04-25 02:27 | 37.50521 | -126.98774 | 37072 ft | 512 kts | 100° |
| 2026-04-25 02:28 | 37.50046 | -126.91303 | 37067 ft | 514 kts | 96° |
| 2026-04-25 02:28 | 37.49647 | -126.82287 | 37073 ft | 516 kts | 95° |
| 2026-04-25 02:29 | 37.49223 | -126.73267 | 37079 ft | 517 kts | 96° |
| 2026-04-25 02:29 | 37.48758 | -126.64269 | 37073 ft | 518 kts | 96° |
| 2026-04-25 02:30 | 37.48269 | -126.55191 | 37067 ft | 518 kts | 96° |
| 2026-04-25 02:30 | 37.47776 | -126.46171 | 37051 ft | 518 kts | 96° |
| 2026-04-25 02:31 | 37.47276 | -126.37104 | 37059 ft | 518 kts | 96° |
| 2026-04-25 02:31 | 37.46769 | -126.28027 | 37066 ft | 519 kts | 96° |
| 2026-04-25 02:32 | 37.46257 | -126.18996 | 37064 ft | 520 kts | 96° |
| 2026-04-25 02:32 | 37.45735 | -126.09892 | 37060 ft | 520 kts | 96° |
| 2026-04-25 02:33 | 37.45210 | -126.00859 | 37057 ft | 520 kts | 96° |
| 2026-04-25 02:33 | 37.44674 | -125.91761 | 37047 ft | 521 kts | 96° |
| 2026-04-25 02:34 | 37.44130 | -125.82649 | 37055 ft | 522 kts | 97° |
| 2026-04-25 02:34 | 37.43580 | -125.73571 | 37060 ft | 523 kts | 96° |
| 2026-04-25 02:35 | 37.43019 | -125.64419 | 37052 ft | 523 kts | 96° |
| 2026-04-25 02:35 | 37.42456 | -125.55329 | 37046 ft | 522 kts | 96° |
| 2026-04-25 02:36 | 37.41883 | -125.46210 | 37032 ft | 522 kts | 96° |
| 2026-04-25 02:36 | 37.41307 | -125.37147 | 37056 ft | 522 kts | 97° |
| 2026-04-25 02:37 | 37.40718 | -125.28009 | 37050 ft | 523 kts | 97° |
| 2026-04-25 02:37 | 37.40124 | -125.18883 | 37046 ft | 523 kts | 97° |
| 2026-04-25 02:38 | 37.39525 | -125.09802 | 37034 ft | 523 kts | 97° |
| 2026-04-25 02:38 | 37.38915 | -125.00660 | 37008 ft | 523 kts | 97° |
| 2026-04-25 02:39 | 37.38303 | -124.91586 | 37030 ft | 523 kts | 97° |
| 2026-04-25 02:39 | 37.37679 | -124.82452 | 37031 ft | 524 kts | 97° |
| 2026-04-25 02:40 | 37.37048 | -124.73303 | 37030 ft | 525 kts | 97° |
| 2026-04-25 02:40 | 37.36413 | -124.64213 | 37027 ft | 525 kts | 97° |
| 2026-04-25 02:41 | 37.35767 | -124.55062 | 37016 ft | 525 kts | 97° |
| 2026-04-25 02:41 | 37.35115 | -124.45916 | 37028 ft | 524 kts | 97° |
| 2026-04-25 02:42 | 37.34456 | -124.36788 | 37009 ft | 524 kts | 97° |
| 2026-04-25 02:42 | 37.33795 | -124.27730 | 37010 ft | 523 kts | 97° |
| 2026-04-25 02:43 | 37.33124 | -124.18617 | 37022 ft | 522 kts | 97° |
| 2026-04-25 02:43 | 37.32447 | -124.09527 | 37006 ft | 521 kts | 97° |
| 2026-04-25 02:44 | 37.31767 | -124.00502 | 36984 ft | 521 kts | 97° |
| 2026-04-25 02:44 | 37.31076 | -123.91416 | 37016 ft | 522 kts | 97° |
| 2026-04-25 02:45 | 37.30382 | -123.82364 | 37007 ft | 524 kts | 97° |
| 2026-04-25 02:45 | 37.29832 | -123.73197 | 37016 ft | 526 kts | 95° |
| 2026-04-25 02:46 | 37.29485 | -123.63982 | 37009 ft | 527 kts | 94° |
| 2026-04-25 02:46 | 37.29121 | -123.54840 | 36998 ft | 526 kts | 95° |
| 2026-04-25 02:47 | 37.28708 | -123.45653 | 37000 ft | 525 kts | 95° |
| 2026-04-25 02:47 | 37.28272 | -123.36457 | 37007 ft | 526 kts | 95° |
| 2026-04-25 02:48 | 37.27836 | -123.27344 | 37004 ft | 526 kts | 95° |
| 2026-04-25 02:48 | 37.27392 | -123.18155 | 36996 ft | 527 kts | 95° |
| 2026-04-25 02:49 | 37.26944 | -123.09011 | 36996 ft | 527 kts | 95° |
| 2026-04-25 02:49 | 37.26486 | -122.99804 | 36993 ft | 527 kts | 95° |
| 2026-04-25 02:50 | 37.25822 | -122.90641 | 36981 ft | 525 kts | 104° |
| 2026-04-25 02:50 | 37.23415 | -122.82141 | 37004 ft | 518 kts | 121° |
| 2026-04-25 02:51 | 37.19490 | -122.74636 | 37005 ft | 513 kts | 130° |
| 2026-04-25 02:51 | 37.15299 | -122.67336 | 36994 ft | 515 kts | 130° |
| 2026-04-25 02:52 | 37.11157 | -122.60042 | 36994 ft | 518 kts | 130° |
| 2026-04-25 02:52 | 37.07003 | -122.52641 | 36998 ft | 520 kts | 130° |
| 2026-04-25 02:53 | 37.02839 | -122.45202 | 36995 ft | 521 kts | 130° |
| 2026-04-25 02:53 | 36.98677 | -122.37785 | 36984 ft | 521 kts | 130° |
| 2026-04-25 02:54 | 36.94496 | -122.30360 | 37010 ft | 521 kts | 130° |
| 2026-04-25 02:54 | 36.90341 | -122.22999 | 37011 ft | 520 kts | 130° |
| 2026-04-25 02:55 | 36.86158 | -122.15604 | 36992 ft | 520 kts | 130° |
| 2026-04-25 02:55 | 36.81999 | -122.08269 | 37013 ft | 519 kts | 130° |
| 2026-04-25 02:56 | 36.77810 | -122.00898 | 37023 ft | 520 kts | 130° |
| 2026-04-25 02:56 | 36.73615 | -121.93531 | 37008 ft | 520 kts | 131° |
| 2026-04-25 02:57 | 36.69441 | -121.86217 | 36989 ft | 520 kts | 131° |
| 2026-04-25 02:57 | 36.65231 | -121.78857 | 36999 ft | 521 kts | 131° |
| 2026-04-25 02:58 | 36.61017 | -121.71503 | 36991 ft | 522 kts | 131° |
| 2026-04-25 02:58 | 36.56790 | -121.64144 | 36990 ft | 522 kts | 131° |
| 2026-04-25 02:59 | 36.52578 | -121.56828 | 37009 ft | 522 kts | 131° |
| 2026-04-25 02:59 | 36.48343 | -121.49485 | 37005 ft | 521 kts | 131° |
| 2026-04-25 03:00 | 36.44111 | -121.42163 | 36989 ft | 521 kts | 132° |
| 2026-04-25 03:00 | 36.39895 | -121.34887 | 36989 ft | 521 kts | 132° |
| 2026-04-25 03:01 | 36.35652 | -121.27581 | 36978 ft | 522 kts | 132° |
| 2026-04-25 03:01 | 36.31397 | -121.20269 | 36976 ft | 523 kts | 132° |
| 2026-04-25 03:02 | 36.27155 | -121.12994 | 36960 ft | 523 kts | 132° |
| 2026-04-25 03:02 | 36.22874 | -121.05666 | 36944 ft | 524 kts | 132° |
| 2026-04-25 03:03 | 36.18585 | -120.98341 | 36922 ft | 524 kts | 132° |
| 2026-04-25 03:03 | 36.14325 | -120.91079 | 36932 ft | 524 kts | 132° |
| 2026-04-25 03:04 | 36.10037 | -120.83788 | 36939 ft | 524 kts | 132° |
| 2026-04-25 03:04 | 36.05758 | -120.76528 | 36939 ft | 524 kts | 132° |
| 2026-04-25 03:05 | 35.99311 | -120.65617 | 36942 ft | 524 kts | 133° |
| 2026-04-25 03:05 | 35.95005 | -120.58348 | 36939 ft | 524 kts | 133° |
| 2026-04-25 03:06 | 35.90699 | -120.51095 | 36927 ft | 524 kts | 133° |
| 2026-04-25 03:06 | 35.86390 | -120.43849 | 36923 ft | 523 kts | 133° |
| 2026-04-25 03:07 | 35.82105 | -120.36661 | 36944 ft | 522 kts | 133° |
| 2026-04-25 03:07 | 35.77794 | -120.29446 | 36952 ft | 522 kts | 133° |
| 2026-04-25 03:08 | 35.73471 | -120.22222 | 36909 ft | 523 kts | 133° |
| 2026-04-25 03:08 | 35.69145 | -120.15008 | 36916 ft | 523 kts | 133° |
| 2026-04-25 03:09 | 35.64308 | -120.08644 | 36903 ft | 496 kts | 156° |
| 2026-04-25 03:09 | 35.58386 | -120.04401 | 36892 ft | 493 kts | 159° |
| 2026-04-25 03:10 | 35.52475 | -120.00127 | 36914 ft | 497 kts | 158° |
| 2026-04-25 03:10 | 35.46525 | -119.95675 | 36939 ft | 502 kts | 157° |
| 2026-04-25 03:11 | 35.40566 | -119.91180 | 36903 ft | 500 kts | 158° |
| 2026-04-25 03:11 | 35.37620 | -119.88958 | 36684 ft | 492 kts | 158° |
| 2026-04-25 03:11 | 35.34721 | -119.86781 | 36159 ft | 488 kts | 158° |
| 2026-04-25 03:12 | 35.31801 | -119.84602 | 35461 ft | 490 kts | 158° |
| 2026-04-25 03:12 | 35.28897 | -119.82432 | 34880 ft | 489 kts | 157° |
| 2026-04-25 03:12 | 35.26106 | -119.80122 | 34409 ft | 491 kts | 153° |
| 2026-04-25 03:12 | 35.23382 | -119.77587 | 34011 ft | 489 kts | 151° |
| 2026-04-25 03:13 | 35.20737 | -119.75010 | 33521 ft | 480 kts | 151° |
| 2026-04-25 03:13 | 35.18156 | -119.72483 | 32735 ft | 470 kts | 151° |
| 2026-04-25 03:13 | 35.15602 | -119.70024 | 31750 ft | 466 kts | 151° |
| 2026-04-25 03:13 | 35.13037 | -119.67602 | 30715 ft | 465 kts | 150° |
| 2026-04-25 03:14 | 35.11338 | -119.66015 | 30069 ft | 464 kts | 150° |
| 2026-04-25 03:14 | 35.07898 | -119.62820 | 29144 ft | 461 kts | 150° |
| 2026-04-25 03:14 | 35.06209 | -119.61252 | 28825 ft | 459 kts | 150° |
| 2026-04-25 03:14 | 35.02830 | -119.58114 | 28150 ft | 453 kts | 150° |
| 2026-04-25 03:15 | 35.00363 | -119.55823 | 27710 ft | 449 kts | 150° |
| 2026-04-25 03:15 | 34.97878 | -119.53518 | 27262 ft | 446 kts | 150° |
| 2026-04-25 03:15 | 34.96237 | -119.51996 | 26957 ft | 444 kts | 150° |
| 2026-04-25 03:15 | 34.93785 | -119.49724 | 26508 ft | 441 kts | 150° |
| 2026-04-25 03:16 | 34.91341 | -119.47462 | 26061 ft | 439 kts | 150° |
| 2026-04-25 03:16 | 34.88890 | -119.45237 | 25604 ft | 436 kts | 150° |
| 2026-04-25 03:16 | 34.86453 | -119.43062 | 25162 ft | 434 kts | 150° |
| 2026-04-25 03:16 | 34.84047 | -119.40922 | 24721 ft | 432 kts | 150° |
| 2026-04-25 03:17 | 34.81623 | -119.38764 | 24281 ft | 430 kts | 150° |
| 2026-04-25 03:17 | 34.79206 | -119.36606 | 23840 ft | 429 kts | 150° |
| 2026-04-25 03:17 | 34.76797 | -119.34455 | 23367 ft | 428 kts | 150° |
| 2026-04-25 03:17 | 34.74392 | -119.32310 | 22868 ft | 427 kts | 150° |
| 2026-04-25 03:18 | 34.71991 | -119.30203 | 22398 ft | 424 kts | 150° |
| 2026-04-25 03:18 | 34.69627 | -119.28143 | 21954 ft | 421 kts | 150° |
| 2026-04-25 03:18 | 34.67250 | -119.26072 | 21501 ft | 419 kts | 150° |
| 2026-04-25 03:18 | 34.64889 | -119.24011 | 21080 ft | 416 kts | 150° |
| 2026-04-25 03:19 | 34.62534 | -119.21973 | 20648 ft | 414 kts | 150° |
| 2026-04-25 03:19 | 34.60189 | -119.19955 | 20200 ft | 412 kts | 150° |
| 2026-04-25 03:19 | 34.57854 | -119.17946 | 19772 ft | 410 kts | 150° |
| 2026-04-25 03:19 | 34.55534 | -119.15945 | 19335 ft | 408 kts | 149° |
| 2026-04-25 03:20 | 34.53239 | -119.13920 | 18904 ft | 407 kts | 149° |
| 2026-04-25 03:20 | 34.50954 | -119.11885 | 18459 ft | 407 kts | 149° |
| 2026-04-25 03:20 | 34.48702 | -119.09883 | 17970 ft | 406 kts | 148° |
| 2026-04-25 03:20 | 34.46423 | -119.07863 | 17489 ft | 404 kts | 148° |
| 2026-04-25 03:21 | 34.44164 | -119.05865 | 17039 ft | 401 kts | 148° |
| 2026-04-25 03:21 | 34.41911 | -119.03899 | 16663 ft | 397 kts | 149° |
| 2026-04-25 03:21 | 34.39671 | -119.01964 | 16210 ft | 394 kts | 149° |
| 2026-04-25 03:21 | 34.37440 | -119.00039 | 15784 ft | 391 kts | 149° |
| 2026-04-25 03:22 | 34.35230 | -118.98130 | 15363 ft | 388 kts | 149° |
| 2026-04-25 03:22 | 34.33075 | -118.96243 | 14949 ft | 385 kts | 147° |
| 2026-04-25 03:22 | 34.30925 | -118.94288 | 14501 ft | 384 kts | 147° |
| 2026-04-25 03:22 | 34.28804 | -118.92346 | 14077 ft | 381 kts | 147° |
| 2026-04-25 03:23 | 34.26690 | -118.90420 | 13668 ft | 378 kts | 147° |
| 2026-04-25 03:23 | 34.24626 | -118.88534 | 13186 ft | 376 kts | 145° |
| 2026-04-25 03:23 | 34.22688 | -118.86407 | 12750 ft | 376 kts | 136° |
| 2026-04-25 03:23 | 34.21011 | -118.83998 | 12352 ft | 373 kts | 131° |
| 2026-04-25 03:24 | 34.19401 | -118.81551 | 11942 ft | 370 kts | 131° |
| 2026-04-25 03:24 | 34.17812 | -118.79137 | 11524 ft | 359 kts | 131° |
| 2026-04-25 03:24 | 34.16303 | -118.76851 | 11028 ft | 337 kts | 131° |
| 2026-04-25 03:24 | 34.14863 | -118.74684 | 10631 ft | 326 kts | 131° |
| 2026-04-25 03:25 | 34.13466 | -118.72592 | 10437 ft | 319 kts | 131° |
| 2026-04-25 03:25 | 34.12111 | -118.70564 | 10274 ft | 302 kts | 131° |
| 2026-04-25 03:25 | 34.10808 | -118.68620 | 10166 ft | 293 kts | 131° |
| 2026-04-25 03:25 | 34.09546 | -118.66738 | 10036 ft | 284 kts | 131° |
| 2026-04-25 03:26 | 34.08313 | -118.64902 | 9834 ft | 280 kts | 131° |
| 2026-04-25 03:26 | 34.07092 | -118.63085 | 9514 ft | 278 kts | 131° |
| 2026-04-25 03:26 | 34.05880 | -118.61280 | 9216 ft | 277 kts | 131° |
| 2026-04-25 03:26 | 34.04685 | -118.59503 | 8913 ft | 275 kts | 131° |
| 2026-04-25 03:27 | 34.03479 | -118.57709 | 8610 ft | 274 kts | 131° |
| 2026-04-25 03:27 | 34.02311 | -118.55909 | 8290 ft | 270 kts | 123° |
| 2026-04-25 03:27 | 34.01737 | -118.53805 | 8003 ft | 264 kts | 96° |
| 2026-04-25 03:27 | 34.01569 | -118.51583 | 7954 ft | 266 kts | 97° |
| 2026-04-25 03:28 | 34.01366 | -118.49373 | 7811 ft | 264 kts | 97° |
| 2026-04-25 03:28 | 34.01158 | -118.47188 | 7581 ft | 261 kts | 97° |
| 2026-04-25 03:28 | 34.01059 | -118.45050 | 7257 ft | 256 kts | 84° |
| 2026-04-25 03:28 | 34.01383 | -118.42949 | 6993 ft | 253 kts | 77° |
| 2026-04-25 03:29 | 34.01786 | -118.40884 | 6713 ft | 252 kts | 77° |
| 2026-04-25 03:29 | 34.02170 | -118.38826 | 6427 ft | 251 kts | 78° |
| 2026-04-25 03:29 | 34.02537 | -118.36773 | 6117 ft | 250 kts | 78° |
| 2026-04-25 03:29 | 34.02864 | -118.34751 | 6026 ft | 242 kts | 83° |
| 2026-04-25 03:30 | 34.03069 | -118.32777 | 6006 ft | 238 kts | 84° |
| 2026-04-25 03:30 | 34.03260 | -118.30790 | 6004 ft | 239 kts | 84° |
| 2026-04-25 03:30 | 34.03451 | -118.28764 | 5800 ft | 246 kts | 84° |
| 2026-04-25 03:30 | 34.03648 | -118.26693 | 5470 ft | 249 kts | 84° |
| 2026-04-25 03:31 | 34.03846 | -118.24622 | 5151 ft | 249 kts | 84° |
| 2026-04-25 03:31 | 34.04036 | -118.22580 | 4759 ft | 239 kts | 85° |
| 2026-04-25 03:31 | 34.04218 | -118.20642 | 4346 ft | 231 kts | 84° |
| 2026-04-25 03:31 | 34.04420 | -118.18717 | 3983 ft | 231 kts | 79° |
| 2026-04-25 03:32 | 34.04790 | -118.16836 | 3618 ft | 231 kts | 81° |
| 2026-04-25 03:32 | 34.04848 | -118.14929 | 3227 ft | 228 kts | 105° |
| 2026-04-25 03:32 | 34.04090 | -118.13284 | 2862 ft | 227 kts | 139° |
| 2026-04-25 03:32 | 34.02726 | -118.12424 | 2580 ft | 216 kts | 169° |
| 2026-04-25 03:33 | 34.01331 | -118.12250 | 2573 ft | 189 kts | 190° |
| 2026-04-25 03:33 | 34.00220 | -118.12934 | 2630 ft | 181 kts | 226° |
| 2026-04-25 03:33 | 33.99424 | -118.14127 | 2623 ft | 183 kts | 231° |
| 2026-04-25 03:33 | 33.98637 | -118.15340 | 2600 ft | 186 kts | 231° |
| 2026-04-25 03:34 | 33.97845 | -118.16564 | 2589 ft | 183 kts | 231° |
| 2026-04-25 03:34 | 33.97068 | -118.17771 | 2593 ft | 180 kts | 231° |
| 2026-04-25 03:34 | 33.96306 | -118.18957 | 2604 ft | 178 kts | 231° |
| 2026-04-25 03:34 | 33.95545 | -118.20147 | 2605 ft | 180 kts | 231° |
| 2026-04-25 03:35 | 33.94779 | -118.21346 | 2609 ft | 183 kts | 232° |
| 2026-04-25 03:35 | 33.94249 | -118.22765 | 2608 ft | 195 kts | 263° |
| 2026-04-25 03:35 | 33.94505 | -118.24331 | 2604 ft | 191 kts | 291° |
| 2026-04-25 03:35 | 33.94825 | -118.25853 | 2430 ft | 189 kts | 267° |
| 2026-04-25 03:36 | 33.94769 | -118.27429 | 2095 ft | 186 kts | 266° |
| 2026-04-25 03:36 | 33.94689 | -118.28882 | 1907 ft | 163 kts | 262° |
| 2026-04-25 03:36 | 33.94562 | -118.30191 | 1540 ft | 151 kts | 261° |
| 2026-04-25 03:36 | 33.94435 | -118.31427 | 1266 ft | 147 kts | 261° |
| 2026-04-25 03:37 | 33.94313 | -118.32656 | 1086 ft | 148 kts | 261° |
| 2026-04-25 03:37 | 33.94189 | -118.33877 | 917 ft | 146 kts | 260° |
| 2026-04-25 03:37 | 33.94058 | -118.35080 | 714 ft | 144 kts | 262° |
| 2026-04-25 03:37 | 33.93939 | -118.36250 | 520 ft | 139 kts | 263° |
| 2026-04-25 03:38 | 33.93827 | -118.37408 | 309 ft | 141 kts | 263° |
| 2026-04-25 03:38 | 33.93705 | -118.38583 | 149 ft | 142 kts | 262° |
| 2026-04-25 03:38 | 33.93595 | -118.39652 | 127 ft | 113 kts | 263° |
| 2026-04-25 03:38 | 33.93518 | -118.40413 | 130 ft | 69 kts | 263° |
| 2026-04-25 03:39 | 33.93477 | -118.40828 | 127 ft | 28 kts | 266° |
| 2026-04-25 03:39 | 33.93501 | -118.41057 | 129 ft | 28 kts | 284° |
| 2026-04-25 03:39 | 33.93535 | -118.41170 | 125 ft | 8 kts | 290° |
| 2026-04-25 03:39 | 33.93556 | -118.41219 | 126 ft | 0 kts | 318° |
| 2026-04-25 03:40 | 33.93584 | -118.41243 | 126 ft | 12 kts | 329° |
| 2026-04-25 03:41 | 33.93711 | -118.41271 | 127 ft | 15 kts | 14° |
| 2026-04-25 03:41 | 33.93756 | -118.41192 | 127 ft | 12 kts | 78° |
| 2026-04-25 03:41 | 33.93760 | -118.41158 | 128 ft | 0 kts | 83° |
| 2026-04-25 03:42 | 33.93762 | -118.41153 | 127 ft | 2 kts | 70° |
| 2026-04-25 03:42 | 33.93799 | -118.41150 | 126 ft | 12 kts | 350° |
| 2026-04-25 03:42 | 33.93923 | -118.41170 | 128 ft | 21 kts | 353° |
| 2026-04-25 03:43 | 33.93984 | -118.41175 | 128 ft | 6 kts | 8° |
| 2026-04-25 03:43 | 33.94011 | -118.41144 | 125 ft | 6 kts | 69° |
| 2026-04-25 03:43 | 33.94018 | -118.41094 | 129 ft | 6 kts | 82° |
| 2026-04-25 03:43 | 33.94019 | -118.41090 | 130 ft | 0 kts | 82° |